Time,TemperatureF,DewpointF,PressureIn,WindDirection,WindDirectionDegrees,WindSpeedMPH,WindSpeedGustMPH,Humidity,HourlyPrecipIn,Conditions,Clouds,dailyrainin,SoftwareType,DateUTC
2013-11-04 00:00:00,38.7,37.7,30.28,ENE,61,0.0,0.0,96,0.00,,---,0.00,VWS V14.01,2013-11-04 05:00:00,
2013-11-04 00:01:00,38.4,37.4,30.29,ENE,61,0.0,0.0,96,0.00,,---,0.00,VWS V14.01,2013-11-04 05:01:00,
2013-11-04 00:02:00,38.3,37.3,30.29,ENE,61,0.0,0.0,96,0.00,,---,0.00,VWS V14.01,2013-11-04 05:02:00,
2013-11-04 00:05:00,38.6,37.6,30.28,ENE,61,0.0,0.0,96,0.00,,---,0.00,VWS V14.01,2013-11-04 05:05:00,
2013-11-04 00:07:00,38.1,37.1,30.29,ENE,61,0.0,0.0,96,0.00,,---,0.00,VWS V14.01,2013-11-04 05:07:00,
2013-11-04 00:10:00,38.4,37.4,30.28,ENE,61,0.0,0.0,96,0.00,,---,0.00,VWS V14.01,2013-11-04 05:10:00,
2013-11-04 00:12:00,38.1,37.1,30.29,ENE,61,0.0,0.0,96,0.00,,---,0.00,VWS V14.01,2013-11-04 05:12:00,
2013-11-04 00:15:00,38.3,37.3,30.28,ENE,61,0.0,0.0,96,0.00,,---,0.00,VWS V14.01,2013-11-04 05:15:00,
2013-11-04 00:17:00,38.1,37.3,30.29,ENE,61,0.0,0.0,97,0.00,,---,0.00,VWS V14.01,2013-11-04 05:17:00,
2013-11-04 00:20:00,38.4,37.6,30.29,ENE,61,0.0,0.0,97,0.00,,---,0.00,VWS V14.01,2013-11-04 05:20:00,
2013-11-04 00:22:00,38.1,37.1,30.30,ENE,61,0.0,0.0,96,0.00,,---,0.00,VWS V14.01,2013-11-04 05:22:00,
2013-11-04 00:25:00,38.3,37.5,30.29,ENE,61,0.0,0.0,97,0.00,,---,0.00,VWS V14.01,2013-11-04 05:25:00,
2013-11-04 00:27:00,38.1,37.1,30.30,ENE,61,0.0,0.0,96,0.00,,---,0.00,VWS V14.01,2013-11-04 05:27:00,
2013-11-04 00:30:00,38.2,37.2,30.29,ENE,61,0.0,0.0,96,0.00,,---,0.00,VWS V14.01,2013-11-04 05:30:00,
2013-11-04 00:32:00,38.1,37.3,30.30,ENE,61,0.0,0.0,97,0.00,,---,0.00,VWS V14.01,2013-11-04 05:32:00,
2013-11-04 00:35:00,38.2,37.4,30.28,ENE,61,0.0,0.0,97,0.00,,---,0.00,VWS V14.01,2013-11-04 05:35:00,
2013-11-04 00:37:00,38.2,37.4,30.30,ENE,61,0.0,0.0,97,0.00,,---,0.00,VWS V14.01,2013-11-04 05:37:00,
2013-11-04 00:40:00,38.3,37.5,30.29,ENE,61,0.0,0.0,97,0.00,,---,0.00,VWS V14.01,2013-11-04 05:40:00,
2013-11-04 00:42:00,38.3,37.3,30.30,ENE,61,0.0,0.0,96,0.00,,---,0.00,VWS V14.01,2013-11-04 05:42:00,
2013-11-04 00:45:00,38.2,37.4,30.29,ENE,61,0.0,0.0,97,0.00,,---,0.00,VWS V14.01,2013-11-04 05:45:00,
2013-11-04 00:47:00,38.4,37.4,30.30,ENE,61,0.0,0.0,96,0.00,,---,0.00,VWS V14.01,2013-11-04 05:47:00,
2013-11-04 00:50:00,38.3,37.5,30.29,ENE,61,0.0,0.0,97,0.00,,---,0.00,VWS V14.01,2013-11-04 05:50:00,
2013-11-04 00:52:00,38.7,37.7,30.31,ENE,61,0.0,0.0,96,0.00,,---,0.00,VWS V14.01,2013-11-04 05:52:00,
2013-11-04 00:55:00,38.4,37.4,30.29,ENE,61,0.0,0.0,96,0.00,,---,0.00,VWS V14.01,2013-11-04 05:55:00,
2013-11-04 00:57:00,38.8,37.5,30.31,ENE,61,0.0,0.0,95,0.00,,---,0.00,VWS V14.01,2013-11-04 05:57:00,
2013-11-04 01:00:00,38.4,37.4,30.29,ENE,61,0.0,0.0,96,0.00,,---,0.00,VWS V14.01,2013-11-04 06:00:00,
2013-11-04 01:02:00,38.5,37.2,30.31,ENE,61,0.0,0.0,95,0.00,,---,0.00,VWS V14.01,2013-11-04 06:02:00,
2013-11-04 01:05:00,38.2,37.2,30.29,ENE,61,0.0,0.0,96,0.00,,---,0.00,VWS V14.01,2013-11-04 06:05:00,
2013-11-04 01:07:00,38.2,36.9,30.31,ENE,61,0.0,0.0,95,0.00,,---,0.00,VWS V14.01,2013-11-04 06:07:00,
2013-11-04 01:10:00,38.1,37.1,30.29,ENE,61,0.0,0.0,96,0.00,,---,0.00,VWS V14.01,2013-11-04 06:10:00,
2013-11-04 01:12:00,37.9,36.9,30.31,ENE,61,0.0,0.0,96,0.00,,---,0.00,VWS V14.01,2013-11-04 06:12:00,
2013-11-04 01:15:00,38.0,37.0,30.29,ENE,61,0.0,0.0,96,0.00,,---,0.00,VWS V14.01,2013-11-04 06:15:00,
2013-11-04 01:17:00,37.9,36.9,30.31,ENE,61,0.0,0.0,96,0.00,,---,0.00,VWS V14.01,2013-11-04 06:17:00,
2013-11-04 01:20:00,38.1,37.3,30.29,ENE,61,0.0,0.0,97,0.00,,---,0.00,VWS V14.01,2013-11-04 06:20:00,
2013-11-04 01:22:00,37.9,36.9,30.31,ENE,61,0.0,0.0,96,0.00,,---,0.00,VWS V14.01,2013-11-04 06:22:00,
2013-11-04 01:25:00,38.1,37.1,30.30,ENE,61,0.0,0.0,96,0.00,,---,0.00,VWS V14.01,2013-11-04 06:25:00,
2013-11-04 01:27:00,37.9,36.9,30.31,ENE,61,0.0,0.0,96,0.00,,---,0.00,VWS V14.01,2013-11-04 06:27:00,
2013-11-04 01:30:00,38.1,37.3,30.30,ENE,61,0.0,0.0,97,0.00,,---,0.00,VWS V14.01,2013-11-04 06:30:00,
2013-11-04 01:32:00,37.9,36.9,30.31,ENE,61,0.0,0.0,96,0.00,,---,0.00,VWS V14.01,2013-11-04 06:32:00,
2013-11-04 01:35:00,38.2,37.4,30.30,ENE,61,0.0,0.0,97,0.00,,---,0.00,VWS V14.01,2013-11-04 06:35:00,
2013-11-04 01:37:00,37.7,36.7,30.31,ENE,61,0.0,0.0,96,0.00,,---,0.00,VWS V14.01,2013-11-04 06:37:00,
2013-11-04 01:40:00,38.3,37.5,30.30,ENE,61,0.0,0.0,97,0.00,,---,0.00,VWS V14.01,2013-11-04 06:40:00,
2013-11-04 01:42:00,37.6,36.6,30.31,ENE,61,0.0,0.0,96,0.00,,---,0.00,VWS V14.01,2013-11-04 06:42:00,
2013-11-04 01:45:00,38.3,37.3,30.30,ENE,61,0.0,0.0,96,0.00,,---,0.00,VWS V14.01,2013-11-04 06:45:00,
2013-11-04 01:47:00,37.5,36.5,30.31,ENE,61,0.0,0.0,96,0.00,,---,0.00,VWS V14.01,2013-11-04 06:47:00,
2013-11-04 01:50:00,38.5,37.5,30.30,ENE,61,0.0,0.0,96,0.00,,---,0.00,VWS V14.01,2013-11-04 06:50:00,
2013-11-04 01:52:00,37.3,36.3,30.32,ENE,61,0.0,0.0,96,0.00,,---,0.00,VWS V14.01,2013-11-04 06:52:00,
2013-11-04 01:55:00,38.7,37.7,30.31,ENE,61,0.0,0.0,96,0.00,,---,0.00,VWS V14.01,2013-11-04 06:55:00,
2013-11-04 01:57:00,37.2,36.2,30.31,ENE,61,0.0,0.0,96,0.00,,---,0.00,VWS V14.01,2013-11-04 06:57:00,
2013-11-04 02:00:00,38.7,37.4,30.31,ENE,61,0.0,0.0,95,0.00,,---,0.00,VWS V14.01,2013-11-04 07:00:00,
2013-11-04 02:02:00,37.0,36.0,30.31,ENE,61,0.0,0.0,96,0.00,,---,0.00,VWS V14.01,2013-11-04 07:02:00,
2013-11-04 02:05:00,38.4,36.8,30.31,ENE,61,0.0,0.0,94,0.00,,---,0.00,VWS V14.01,2013-11-04 07:05:00,
2013-11-04 02:07:00,36.9,36.1,30.31,ENE,61,0.0,0.0,97,0.00,,---,0.00,VWS V14.01,2013-11-04 07:07:00,
2013-11-04 02:10:00,38.1,36.8,30.31,ENE,61,0.0,0.0,95,0.00,,---,0.00,VWS V14.01,2013-11-04 07:10:00,
2013-11-04 02:12:00,37.1,36.3,30.31,ENE,61,0.0,0.0,97,0.00,,---,0.00,VWS V14.01,2013-11-04 07:12:00,
2013-11-04 02:15:00,37.9,36.9,30.31,ENE,61,0.0,0.0,96,0.00,,---,0.00,VWS V14.01,2013-11-04 07:15:00,
2013-11-04 02:17:00,37.1,36.3,30.31,ENE,61,0.0,0.0,97,0.00,,---,0.00,VWS V14.01,2013-11-04 07:17:00,
2013-11-04 02:20:00,37.9,36.9,30.31,ENE,61,0.0,0.0,96,0.00,,---,0.00,VWS V14.01,2013-11-04 07:20:00,
2013-11-04 02:22:00,36.9,36.1,30.32,ENE,61,0.0,0.0,97,0.00,,---,0.00,VWS V14.01,2013-11-04 07:22:00,
2013-11-04 02:25:00,37.9,36.9,30.31,ENE,61,0.0,0.0,96,0.00,,---,0.00,VWS V14.01,2013-11-04 07:25:00,
2013-11-04 02:27:00,36.7,35.9,30.31,NNW,347,0.0,0.0,97,0.00,,---,0.00,VWS V14.01,2013-11-04 07:27:00,
2013-11-04 02:30:00,37.8,36.8,30.31,ENE,61,0.0,0.0,96,0.00,,---,0.00,VWS V14.01,2013-11-04 07:30:00,
2013-11-04 02:32:00,36.6,35.8,30.31,NNW,347,0.0,0.0,97,0.00,,---,0.00,VWS V14.01,2013-11-04 07:32:00,
2013-11-04 02:35:00,37.8,36.8,30.31,ENE,61,0.0,0.0,96,0.00,,---,0.00,VWS V14.01,2013-11-04 07:35:00,
2013-11-04 02:37:00,36.6,35.8,30.32,WNW,292,0.0,0.0,97,0.00,,---,0.00,VWS V14.01,2013-11-04 07:37:00,
2013-11-04 02:40:00,37.7,36.7,30.31,ENE,61,0.0,0.0,96,0.00,,---,0.00,VWS V14.01,2013-11-04 07:40:00,
2013-11-04 02:42:00,36.5,35.7,30.31,East,94,0.0,1.0,97,0.00,,---,0.00,VWS V14.01,2013-11-04 07:42:00,
2013-11-04 02:45:00,37.6,36.6,30.32,ENE,61,0.0,0.0,96,0.00,,---,0.00,VWS V14.01,2013-11-04 07:45:00,
2013-11-04 02:47:00,36.4,35.6,30.32,East,94,0.0,0.0,97,0.00,,---,0.00,VWS V14.01,2013-11-04 07:47:00,
2013-11-04 02:50:00,37.5,36.5,30.31,ENE,61,0.0,0.0,96,0.00,,---,0.00,VWS V14.01,2013-11-04 07:50:00,
2013-11-04 02:52:00,36.5,35.7,30.32,ESE,112,0.0,1.0,97,0.00,,---,0.00,VWS V14.01,2013-11-04 07:52:00,
2013-11-04 02:55:00,37.3,36.3,30.32,ENE,61,0.0,0.0,96,0.00,,---,0.00,VWS V14.01,2013-11-04 07:55:00,
2013-11-04 02:57:00,36.4,35.6,30.32,ESE,116,0.0,1.0,97,0.00,,---,0.00,VWS V14.01,2013-11-04 07:57:00,
2013-11-04 03:00:00,37.1,36.1,30.32,ENE,61,0.0,0.0,96,0.00,,---,0.00,VWS V14.01,2013-11-04 08:00:00,
2013-11-04 03:02:00,36.2,35.4,30.32,ESE,116,0.0,0.0,97,0.00,,---,0.00,VWS V14.01,2013-11-04 08:02:00,
2013-11-04 03:05:00,36.9,35.9,30.31,ENE,61,0.0,0.0,96,0.00,,---,0.00,VWS V14.01,2013-11-04 08:05:00,
2013-11-04 03:07:00,36.3,35.5,30.31,ESE,116,0.0,0.0,97,0.00,,---,0.00,VWS V14.01,2013-11-04 08:07:00,
2013-11-04 03:10:00,37.0,36.2,30.32,ENE,61,0.0,0.0,97,0.00,,---,0.00,VWS V14.01,2013-11-04 08:10:00,
2013-11-04 03:12:00,36.1,35.3,30.31,ESE,116,0.0,0.0,97,0.00,,---,0.00,VWS V14.01,2013-11-04 08:12:00,
2013-11-04 03:15:00,37.1,36.3,30.32,ENE,61,0.0,0.0,97,0.00,,---,0.00,VWS V14.01,2013-11-04 08:15:00,
2013-11-04 03:17:00,36.1,35.3,30.31,ESE,116,0.0,0.0,97,0.00,,---,0.00,VWS V14.01,2013-11-04 08:17:00,
2013-11-04 03:20:00,37.0,36.2,30.32,ENE,61,0.0,0.0,97,0.00,,---,0.00,VWS V14.01,2013-11-04 08:20:00,
2013-11-04 03:22:00,36.0,35.2,30.31,ESE,116,0.0,0.0,97,0.00,,---,0.00,VWS V14.01,2013-11-04 08:22:00,
2013-11-04 03:25:00,36.8,36.0,30.31,ENE,61,0.0,0.0,97,0.00,,---,0.00,VWS V14.01,2013-11-04 08:25:00,
2013-11-04 03:27:00,35.9,35.1,30.31,ESE,116,0.0,0.0,97,0.00,,---,0.00,VWS V14.01,2013-11-04 08:27:00,
2013-11-04 03:30:00,36.7,35.9,30.31,NNW,348,0.0,0.0,97,0.00,,---,0.00,VWS V14.01,2013-11-04 08:30:00,
2013-11-04 03:32:00,35.9,35.1,30.31,ESE,116,0.0,0.0,97,0.00,,---,0.00,VWS V14.01,2013-11-04 08:32:00,
2013-11-04 03:35:00,36.7,35.9,30.31,WNW,292,0.0,0.0,97,0.00,,---,0.00,VWS V14.01,2013-11-04 08:35:00,
2013-11-04 03:37:00,35.9,35.4,30.32,SE,124,0.0,0.0,98,0.00,,---,0.00,VWS V14.01,2013-11-04 08:37:00,
2013-11-04 03:40:00,36.5,35.7,30.32,East,96,0.0,1.0,97,0.00,,---,0.00,VWS V14.01,2013-11-04 08:40:00,
2013-11-04 03:42:00,35.9,35.1,30.32,SE,124,0.0,0.0,97,0.00,,---,0.00,VWS V14.01,2013-11-04 08:42:00,
2013-11-04 03:45:00,36.5,35.7,30.32,East,94,0.0,1.0,97,0.00,,---,0.00,VWS V14.01,2013-11-04 08:45:00,
2013-11-04 03:47:00,35.6,34.8,30.32,SE,124,0.0,0.0,97,0.00,,---,0.00,VWS V14.01,2013-11-04 08:47:00,
2013-11-04 03:50:00,36.4,35.6,30.32,NNW,330,1.0,1.0,97,0.00,,---,0.00,VWS V14.01,2013-11-04 08:50:00,
2013-11-04 03:52:00,35.4,34.6,30.32,SE,124,0.0,0.0,97,0.00,,---,0.00,VWS V14.01,2013-11-04 08:52:00,
2013-11-04 03:55:00,36.4,35.6,30.32,NNW,330,0.0,1.0,97,0.00,,---,0.00,VWS V14.01,2013-11-04 08:55:00,
2013-11-04 03:57:00,35.3,34.5,30.32,SE,124,0.0,0.0,97,0.00,,---,0.00,VWS V14.01,2013-11-04 08:57:00,
2013-11-04 04:00:00,36.2,35.4,30.32,ESE,116,0.0,1.0,97,0.00,,---,0.00,VWS V14.01,2013-11-04 09:00:00,
2013-11-04 04:02:00,35.3,34.8,30.33,SE,124,0.0,0.0,98,0.00,,---,0.00,VWS V14.01,2013-11-04 09:02:00,
2013-11-04 04:05:00,36.3,35.5,30.32,ESE,116,0.0,0.0,97,0.00,,---,0.00,VWS V14.01,2013-11-04 09:05:00,
2013-11-04 04:07:00,35.1,34.6,30.33,SE,124,0.0,0.0,98,0.00,,---,0.00,VWS V14.01,2013-11-04 09:07:00,
2013-11-04 04:10:00,36.1,35.3,30.31,ESE,116,0.0,0.0,97,0.00,,---,0.00,VWS V14.01,2013-11-04 09:10:00,
2013-11-04 04:12:00,35.0,34.5,30.32,SE,124,0.0,0.0,98,0.00,,---,0.00,VWS V14.01,2013-11-04 09:12:00,
2013-11-04 04:15:00,36.1,35.3,30.31,ESE,116,0.0,0.0,97,0.00,,---,0.00,VWS V14.01,2013-11-04 09:15:00,
2013-11-04 04:17:00,34.9,34.4,30.33,SE,124,0.0,0.0,98,0.00,,---,0.00,VWS V14.01,2013-11-04 09:17:00,
2013-11-04 04:20:00,36.1,35.3,30.31,ESE,116,0.0,0.0,97,0.00,,---,0.00,VWS V14.01,2013-11-04 09:20:00,
2013-11-04 04:22:00,35.0,34.5,30.33,SE,124,0.0,0.0,98,0.00,,---,0.00,VWS V14.01,2013-11-04 09:22:00,
2013-11-04 04:25:00,36.0,35.2,30.31,ESE,116,0.0,0.0,97,0.00,,---,0.00,VWS V14.01,2013-11-04 09:25:00,
2013-11-04 04:27:00,34.9,34.4,30.33,SE,124,0.0,0.0,98,0.00,,---,0.00,VWS V14.01,2013-11-04 09:27:00,
2013-11-04 04:30:00,35.8,35.0,30.31,ESE,116,0.0,0.0,97,0.00,,---,0.00,VWS V14.01,2013-11-04 09:30:00,
2013-11-04 04:32:00,34.8,34.3,30.33,SE,124,0.0,0.0,98,0.00,,---,0.00,VWS V14.01,2013-11-04 09:32:00,
2013-11-04 04:35:00,35.8,35.0,30.31,ESE,116,0.0,0.0,97,0.00,,---,0.00,VWS V14.01,2013-11-04 09:35:00,
2013-11-04 04:37:00,34.8,34.3,30.33,SE,124,0.0,0.0,98,0.00,,---,0.00,VWS V14.01,2013-11-04 09:37:00,
2013-11-04 04:40:00,36.0,35.5,30.32,SE,124,0.0,0.0,98,0.00,,---,0.00,VWS V14.01,2013-11-04 09:40:00,
2013-11-04 04:42:00,34.8,34.3,30.33,SE,124,0.0,0.0,98,0.00,,---,0.00,VWS V14.01,2013-11-04 09:42:00,
2013-11-04 04:45:00,35.8,35.0,30.32,SE,124,0.0,0.0,97,0.00,,---,0.00,VWS V14.01,2013-11-04 09:45:00,
2013-11-04 04:47:00,34.8,34.3,30.33,SE,124,0.0,0.0,98,0.00,,---,0.00,VWS V14.01,2013-11-04 09:47:00,
2013-11-04 04:50:00,35.5,34.7,30.31,SE,124,0.0,0.0,97,0.00,,---,0.00,VWS V14.01,2013-11-04 09:50:00,
2013-11-04 04:52:00,34.7,34.2,30.34,SE,124,0.0,0.0,98,0.00,,---,0.00,VWS V14.01,2013-11-04 09:52:00,
2013-11-04 04:55:00,35.3,34.5,30.32,SE,124,0.0,0.0,97,0.00,,---,0.00,VWS V14.01,2013-11-04 09:55:00,
2013-11-04 04:57:00,34.4,33.9,30.34,SE,124,0.0,0.0,98,0.00,,---,0.00,VWS V14.01,2013-11-04 09:57:00,
2013-11-04 05:00:00,35.3,34.8,30.32,SE,124,0.0,0.0,98,0.00,,---,0.00,VWS V14.01,2013-11-04 10:00:00,
2013-11-04 05:02:00,34.4,33.9,30.34,SE,124,0.0,0.0,98,0.00,,---,0.00,VWS V14.01,2013-11-04 10:02:00,
2013-11-04 05:05:00,35.3,34.8,30.33,SE,124,0.0,0.0,98,0.00,,---,0.00,VWS V14.01,2013-11-04 10:05:00,
2013-11-04 05:07:00,34.4,33.9,30.34,SE,124,0.0,0.0,98,0.00,,---,0.00,VWS V14.01,2013-11-04 10:07:00,
2013-11-04 05:10:00,35.0,34.2,30.32,SE,124,0.0,0.0,97,0.00,,---,0.00,VWS V14.01,2013-11-04 10:10:00,
2013-11-04 05:12:00,34.6,34.1,30.34,SE,124,0.0,0.0,98,0.00,,---,0.00,VWS V14.01,2013-11-04 10:12:00,
2013-11-04 05:15:00,34.9,34.4,30.32,SE,124,0.0,0.0,98,0.00,,---,0.00,VWS V14.01,2013-11-04 10:15:00,
2013-11-04 05:17:00,34.7,34.5,30.34,SE,124,0.0,0.0,99,0.00,,---,0.00,VWS V14.01,2013-11-04 10:17:00,
2013-11-04 05:20:00,34.9,34.4,30.33,SE,124,0.0,0.0,98,0.00,,---,0.00,VWS V14.01,2013-11-04 10:20:00,
2013-11-04 05:22:00,34.6,34.3,30.34,ESE,117,0.0,1.0,99,0.00,,---,0.00,VWS V14.01,2013-11-04 10:22:00,
2013-11-04 05:25:00,35.0,34.5,30.33,SE,124,0.0,0.0,98,0.00,,---,0.00,VWS V14.01,2013-11-04 10:25:00,
2013-11-04 05:28:00,34.6,34.3,30.34,ESE,118,0.0,1.0,99,0.00,,---,0.00,VWS V14.01,2013-11-04 10:28:00,
2013-11-04 05:30:00,34.8,34.3,30.33,SE,124,0.0,0.0,98,0.00,,---,0.00,VWS V14.01,2013-11-04 10:30:00,
2013-11-04 05:33:00,34.7,34.5,30.35,WNW,290,0.0,1.0,99,0.00,,---,0.00,VWS V14.01,2013-11-04 10:33:00,
2013-11-04 05:35:00,34.8,34.3,30.33,SE,124,0.0,0.0,98,0.00,,---,0.00,VWS V14.01,2013-11-04 10:35:00,
2013-11-04 05:38:00,34.5,34.0,30.35,WNW,290,0.0,1.0,98,0.00,,---,0.00,VWS V14.01,2013-11-04 10:38:00,
2013-11-04 05:40:00,34.8,34.3,30.33,SE,124,0.0,0.0,98,0.00,,---,0.00,VWS V14.01,2013-11-04 10:40:00,
2013-11-04 05:43:00,34.6,34.1,30.34,WNW,290,0.0,0.0,98,0.00,,---,0.00,VWS V14.01,2013-11-04 10:43:00,
2013-11-04 05:45:00,34.8,34.3,30.33,SE,124,0.0,0.0,98,0.00,,---,0.00,VWS V14.01,2013-11-04 10:45:00,
2013-11-04 05:48:00,34.6,34.1,30.34,NW,307,1.0,2.0,98,0.00,,---,0.00,VWS V14.01,2013-11-04 10:48:00,
2013-11-04 05:50:00,34.8,34.3,30.33,SE,124,0.0,0.0,98,0.00,,---,0.00,VWS V14.01,2013-11-04 10:50:00,
2013-11-04 05:53:00,34.8,34.5,30.35,SE,129,0.0,1.0,99,0.00,,---,0.00,VWS V14.01,2013-11-04 10:53:00,
2013-11-04 05:55:00,34.6,34.1,30.34,SE,124,0.0,0.0,98,0.00,,---,0.00,VWS V14.01,2013-11-04 10:55:00,
2013-11-04 05:58:00,35.0,34.8,30.35,SE,129,0.0,1.0,99,0.00,,---,0.00,VWS V14.01,2013-11-04 10:58:00,
2013-11-04 06:00:00,34.3,33.8,30.34,SE,124,0.0,0.0,98,0.00,,---,0.00,VWS V14.01,2013-11-04 11:00:00,
2013-11-04 06:03:00,35.1,34.8,30.35,SE,129,0.0,0.0,99,0.00,,---,0.00,VWS V14.01,2013-11-04 11:03:00,
2013-11-04 06:05:00,34.4,33.9,30.34,SE,124,0.0,0.0,98,0.00,,---,0.00,VWS V14.01,2013-11-04 11:05:00,
2013-11-04 06:08:00,35.1,34.8,30.35,SE,129,0.0,0.0,99,0.00,,---,0.00,VWS V14.01,2013-11-04 11:08:00,
2013-11-04 06:10:00,34.4,33.9,30.34,SE,124,0.0,0.0,98,0.00,,---,0.00,VWS V14.01,2013-11-04 11:10:00,
2013-11-04 06:13:00,35.3,35.0,30.35,SE,129,0.0,0.0,99,0.00,,---,0.00,VWS V14.01,2013-11-04 11:13:00,
2013-11-04 06:14:00,35.3,35.0,30.35,SE,129,0.0,0.0,99,0.00,,---,0.00,VWS V14.01,2013-11-04 11:14:00,
2013-11-04 06:15:00,34.6,34.3,30.34,SE,124,0.0,0.0,99,0.00,,---,0.00,VWS V14.01,2013-11-04 11:15:00,
2013-11-04 06:19:00,35.2,35.0,30.35,SE,129,0.0,0.0,99,0.00,,---,0.00,VWS V14.01,2013-11-04 11:19:00,
2013-11-04 06:20:00,34.7,34.5,30.34,ESE,117,0.0,1.0,99,0.00,,---,0.00,VWS V14.01,2013-11-04 11:20:00,
2013-11-04 06:22:00,35.3,35.0,30.35,SE,129,0.0,0.0,99,0.00,,---,0.00,VWS V14.01,2013-11-04 11:22:00,
2013-11-04 06:25:00,34.7,34.5,30.34,ESE,117,0.0,1.0,99,0.00,,---,0.00,VWS V14.01,2013-11-04 11:25:00,
2013-11-04 06:27:00,35.2,35.0,30.36,SE,129,0.0,0.0,99,0.00,,---,0.00,VWS V14.01,2013-11-04 11:27:00,
2013-11-04 06:30:00,34.6,34.1,30.34,ESE,117,1.0,1.0,98,0.00,,---,0.00,VWS V14.01,2013-11-04 11:30:00,
2013-11-04 06:32:00,35.4,35.2,30.36,SE,129,0.0,0.0,99,0.00,,---,0.00,VWS V14.01,2013-11-04 11:32:00,
2013-11-04 06:35:00,34.7,34.5,30.35,WNW,290,1.0,1.0,99,0.00,,---,0.00,VWS V14.01,2013-11-04 11:35:00,
2013-11-04 06:37:00,35.3,35.0,30.36,SE,129,0.0,0.0,99,0.00,,---,0.00,VWS V14.01,2013-11-04 11:37:00,
2013-11-04 06:40:00,34.5,34.0,30.35,WNW,289,0.0,1.0,98,0.00,,---,0.00,VWS V14.01,2013-11-04 11:40:00,
2013-11-04 06:42:00,35.3,35.0,30.37,SE,129,0.0,0.0,99,0.00,,---,0.00,VWS V14.01,2013-11-04 11:42:00,
2013-11-04 06:45:00,34.6,34.1,30.34,WNW,290,0.0,0.0,98,0.00,,---,0.00,VWS V14.01,2013-11-04 11:45:00,
2013-11-04 06:47:00,35.5,35.2,30.37,SE,129,0.0,0.0,99,0.00,,---,0.00,VWS V14.01,2013-11-04 11:47:00,
2013-11-04 06:50:00,34.8,34.5,30.34,NW,307,0.0,2.0,99,0.00,,---,0.00,VWS V14.01,2013-11-04 11:50:00,
2013-11-04 06:52:00,35.6,35.3,30.37,SE,129,0.0,0.0,99,0.00,,---,0.00,VWS V14.01,2013-11-04 11:52:00,
2013-11-04 06:55:00,34.8,34.5,30.35,SE,129,0.0,1.0,99,0.00,,---,0.00,VWS V14.01,2013-11-04 11:55:00,
2013-11-04 06:57:00,35.6,35.3,30.37,SE,129,0.0,0.0,99,0.00,,---,0.00,VWS V14.01,2013-11-04 11:57:00,
2013-11-04 07:00:00,35.1,34.8,30.35,SE,129,0.0,1.0,99,0.00,,---,0.00,VWS V14.01,2013-11-04 12:00:00,
2013-11-04 07:02:00,35.5,35.2,30.37,SE,129,0.0,0.0,99,0.00,,---,0.00,VWS V14.01,2013-11-04 12:02:00,
2013-11-04 07:05:00,35.1,34.8,30.35,SE,129,0.0,0.0,99,0.00,,---,0.00,VWS V14.01,2013-11-04 12:05:00,
2013-11-04 07:07:00,35.7,35.5,30.38,SE,129,0.0,0.0,99,0.00,,---,0.00,VWS V14.01,2013-11-04 12:07:00,
2013-11-04 07:10:00,35.2,35.0,30.35,SE,129,0.0,0.0,99,0.00,,---,0.00,VWS V14.01,2013-11-04 12:10:00,
2013-11-04 07:12:00,36.0,35.8,30.38,SE,129,0.0,0.0,99,0.00,,---,0.00,VWS V14.01,2013-11-04 12:12:00,
2013-11-04 07:15:00,35.3,35.0,30.35,SE,129,0.0,0.0,99,0.00,,---,0.00,VWS V14.01,2013-11-04 12:15:00,
2013-11-04 07:17:00,35.9,35.7,30.38,SE,129,0.0,0.0,99,0.00,,---,0.00,VWS V14.01,2013-11-04 12:17:00,
2013-11-04 07:20:00,35.2,35.0,30.35,SE,129,0.0,0.0,99,0.00,,---,0.00,VWS V14.01,2013-11-04 12:20:00,
2013-11-04 07:22:00,36.0,35.8,30.38,SE,129,0.0,0.0,99,0.00,,---,0.00,VWS V14.01,2013-11-04 12:22:00,
2013-11-04 07:25:00,35.2,35.0,30.35,SE,129,0.0,0.0,99,0.00,,---,0.00,VWS V14.01,2013-11-04 12:25:00,
2013-11-04 07:27:00,36.0,35.8,30.38,SE,129,0.0,0.0,99,0.00,,---,0.00,VWS V14.01,2013-11-04 12:27:00,
2013-11-04 07:30:00,35.2,35.0,30.36,SE,129,0.0,0.0,99,0.00,,---,0.00,VWS V14.01,2013-11-04 12:30:00,
2013-11-04 07:32:00,36.2,36.0,30.38,SE,129,0.0,1.0,99,0.00,,---,0.00,VWS V14.01,2013-11-04 12:32:00,
2013-11-04 07:35:00,35.5,35.2,30.36,SE,129,0.0,0.0,99,0.00,,---,0.00,VWS V14.01,2013-11-04 12:35:00,
2013-11-04 07:37:00,36.8,36.5,30.39,SW,220,0.0,1.0,99,0.00,,---,0.00,VWS V14.01,2013-11-04 12:37:00,
2013-11-04 07:40:00,35.3,35.0,30.36,SE,129,0.0,0.0,99,0.00,,---,0.00,VWS V14.01,2013-11-04 12:40:00,
2013-11-04 07:42:00,37.3,37.0,30.38,SW,220,0.0,0.0,99,0.00,,---,0.00,VWS V14.01,2013-11-04 12:42:00,
2013-11-04 07:45:00,35.3,35.0,30.37,SE,129,0.0,0.0,99,0.00,,---,0.00,VWS V14.01,2013-11-04 12:45:00,
2013-11-04 07:47:00,38.0,37.7,30.38,SW,220,0.0,0.0,99,0.00,,---,0.00,VWS V14.01,2013-11-04 12:47:00,
2013-11-04 07:50:00,35.6,35.3,30.37,SE,129,0.0,0.0,99,0.00,,---,0.00,VWS V14.01,2013-11-04 12:50:00,
2013-11-04 07:52:00,38.1,37.8,30.38,SW,220,0.0,0.0,99,0.00,,---,0.00,VWS V14.01,2013-11-04 12:52:00,
2013-11-04 07:55:00,35.6,35.3,30.37,SE,129,0.0,0.0,99,0.00,,---,0.00,VWS V14.01,2013-11-04 12:55:00,
2013-11-04 07:58:00,38.6,38.3,30.38,SW,220,0.0,0.0,99,0.00,,---,0.00,VWS V14.01,2013-11-04 12:58:00,
2013-11-04 08:00:00,35.5,35.2,30.37,SE,129,0.0,0.0,99,0.00,,---,0.00,VWS V14.01,2013-11-04 13:00:00,
2013-11-04 08:03:00,38.8,38.5,30.39,SW,220,0.0,0.0,99,0.00,,---,0.00,VWS V14.01,2013-11-04 13:03:00,
2013-11-04 08:05:00,35.6,35.3,30.37,SE,129,0.0,0.0,99,0.00,,---,0.00,VWS V14.01,2013-11-04 13:05:00,
2013-11-04 08:08:00,39.4,39.1,30.39,SW,220,0.0,0.0,99,0.00,,---,0.00,VWS V14.01,2013-11-04 13:08:00,
2013-11-04 08:10:00,35.8,35.5,30.38,SE,129,0.0,0.0,99,0.00,,---,0.00,VWS V14.01,2013-11-04 13:10:00,
2013-11-04 08:13:00,40.6,40.3,30.39,SW,220,0.0,0.0,99,0.00,,---,0.00,VWS V14.01,2013-11-04 13:13:00,
2013-11-04 08:15:00,36.0,35.8,30.38,SE,129,0.0,0.0,99,0.00,,---,0.00,VWS V14.01,2013-11-04 13:15:00,
2013-11-04 08:18:00,42.1,41.8,30.39,SW,220,0.0,0.0,99,0.00,,---,0.00,VWS V14.01,2013-11-04 13:18:00,
2013-11-04 08:20:00,35.9,35.7,30.38,SE,129,0.0,0.0,99,0.00,,---,0.00,VWS V14.01,2013-11-04 13:20:00,
2013-11-04 08:23:00,43.3,42.8,30.39,SW,217,0.0,0.0,98,0.00,,---,0.00,VWS V14.01,2013-11-04 13:23:00,
2013-11-04 08:25:00,36.0,35.8,30.38,SE,129,0.0,0.0,99,0.00,,---,0.00,VWS V14.01,2013-11-04 13:25:00,
2013-11-04 08:28:00,43.8,42.2,30.38,ENE,62,0.0,1.0,94,0.00,,---,0.00,VWS V14.01,2013-11-04 13:28:00,
2013-11-04 08:30:00,36.1,35.8,30.38,SE,129,0.0,0.0,99,0.00,,---,0.00,VWS V14.01,2013-11-04 13:30:00,
2013-11-04 08:33:00,43.9,41.2,30.39,ENE,62,0.0,1.0,90,0.00,,---,0.00,VWS V14.01,2013-11-04 13:33:00,
2013-11-04 08:35:00,36.3,36.0,30.39,SW,217,0.0,1.0,99,0.00,,---,0.00,VWS V14.01,2013-11-04 13:35:00,
2013-11-04 08:38:00,43.7,40.7,30.39,ENE,62,0.0,0.0,89,0.00,,---,0.00,VWS V14.01,2013-11-04 13:38:00,
2013-11-04 08:40:00,37.0,36.8,30.39,SW,220,0.0,1.0,99,0.00,,---,0.00,VWS V14.01,2013-11-04 13:40:00,
2013-11-04 08:43:00,43.7,40.4,30.40,ENE,62,0.0,0.0,88,0.00,,---,0.00,VWS V14.01,2013-11-04 13:43:00,
2013-11-04 08:45:00,37.5,37.2,30.38,SW,220,0.0,0.0,99,0.00,,---,0.00,VWS V14.01,2013-11-04 13:45:00,
2013-11-04 08:48:00,43.8,40.2,30.39,ENE,58,1.0,1.0,87,0.00,,---,0.00,VWS V14.01,2013-11-04 13:48:00,
2013-11-04 08:50:00,38.0,37.7,30.38,SW,220,0.0,0.0,99,0.00,,---,0.00,VWS V14.01,2013-11-04 13:50:00,
2013-11-04 08:53:00,43.8,39.9,30.39,ENE,57,0.0,1.0,86,0.00,,---,0.00,VWS V14.01,2013-11-04 13:53:00,
2013-11-04 08:55:00,38.3,38.0,30.38,SW,219,0.0,0.0,99,0.00,,---,0.00,VWS V14.01,2013-11-04 13:55:00,
2013-11-04 08:58:00,44.0,39.8,30.40,NE,52,0.0,1.0,85,0.00,,---,0.00,VWS V14.01,2013-11-04 13:58:00,
2013-11-04 09:00:00,38.7,38.4,30.39,SW,219,0.0,0.0,99,0.00,,---,0.00,VWS V14.01,2013-11-04 14:00:00,
2013-11-04 09:03:00,44.4,40.5,30.40,East,84,0.0,1.0,86,0.00,,---,0.00,VWS V14.01,2013-11-04 14:03:00,
2013-11-04 09:05:00,39.0,38.7,30.39,SW,220,0.0,0.0,99,0.00,,---,0.00,VWS V14.01,2013-11-04 14:05:00,
2013-11-04 09:08:00,45.0,40.8,30.40,ENE,75,0.0,1.0,85,0.00,,---,0.00,VWS V14.01,2013-11-04 14:08:00,
2013-11-04 09:10:00,39.6,39.3,30.39,SW,220,0.0,0.0,99,0.00,,---,0.00,VWS V14.01,2013-11-04 14:10:00,
2013-11-04 09:13:00,45.6,41.0,30.40,ESE,103,0.0,1.0,84,0.00,,---,0.00,VWS V14.01,2013-11-04 14:13:00,
2013-11-04 09:15:00,41.0,40.7,30.39,SW,220,0.0,0.0,99,0.00,,---,0.00,VWS V14.01,2013-11-04 14:15:00,
2013-11-04 09:18:00,46.1,41.2,30.40,East,82,0.0,0.0,83,0.00,,---,0.00,VWS V14.01,2013-11-04 14:18:00,
2013-11-04 09:20:00,42.4,42.1,30.39,SW,220,0.0,0.0,99,0.00,,---,0.00,VWS V14.01,2013-11-04 14:20:00,
2013-11-04 09:23:00,46.8,41.3,30.40,ENE,58,0.0,2.0,81,0.00,,---,0.00,VWS V14.01,2013-11-04 14:23:00,
2013-11-04 09:25:00,43.5,42.4,30.39,East,100,0.0,0.0,96,0.00,,---,0.00,VWS V14.01,2013-11-04 14:25:00,
2013-11-04 09:28:00,47.1,41.9,30.40,ENE,57,0.0,0.0,82,0.00,,---,0.00,VWS V14.01,2013-11-04 14:28:00,
2013-11-04 09:30:00,43.9,42.3,30.39,ENE,62,0.0,1.0,94,0.00,,---,0.00,VWS V14.01,2013-11-04 14:30:00,
2013-11-04 09:33:00,47.9,41.7,30.40,ENE,60,0.0,0.0,79,0.00,,---,0.00,VWS V14.01,2013-11-04 14:33:00,
2013-11-04 09:35:00,43.8,41.3,30.39,ENE,62,0.0,1.0,91,0.00,,---,0.00,VWS V14.01,2013-11-04 14:35:00,
2013-11-04 09:38:00,48.4,42.5,30.40,ENE,65,0.0,1.0,80,0.00,,---,0.00,VWS V14.01,2013-11-04 14:38:00,
2013-11-04 09:40:00,43.8,41.1,30.39,ENE,62,0.0,0.0,90,0.00,,---,0.00,VWS V14.01,2013-11-04 14:40:00,
2013-11-04 09:43:00,48.9,42.3,30.41,South,169,0.0,1.0,78,0.00,,---,0.00,VWS V14.01,2013-11-04 14:43:00,
2013-11-04 09:45:00,43.7,40.1,30.40,ENE,58,0.0,0.0,87,0.00,,---,0.00,VWS V14.01,2013-11-04 14:45:00,
2013-11-04 09:48:00,49.2,41.6,30.41,WSW,251,0.0,2.0,75,0.00,,---,0.00,VWS V14.01,2013-11-04 14:48:00,
2013-11-04 09:50:00,43.8,39.9,30.39,ENE,57,0.0,1.0,86,0.00,,---,0.00,VWS V14.01,2013-11-04 14:50:00,
2013-11-04 09:53:00,49.8,41.9,30.41,WNW,297,0.0,1.0,74,0.00,,---,0.00,VWS V14.01,2013-11-04 14:53:00,
2013-11-04 09:55:00,43.9,40.0,30.39,NE,52,0.0,1.0,86,0.00,,---,0.00,VWS V14.01,2013-11-04 14:55:00,
2013-11-04 09:58:00,50.4,42.1,30.41,West,259,1.0,2.0,73,0.00,,---,0.00,VWS V14.01,2013-11-04 14:58:00,
2013-11-04 10:00:00,44.1,40.2,30.40,ENE,65,0.0,1.0,86,0.00,,---,0.00,VWS V14.01,2013-11-04 15:00:00,
2013-11-04 10:03:00,50.6,41.6,30.41,WSW,257,0.0,3.0,71,0.00,,---,0.00,VWS V14.01,2013-11-04 15:03:00,
2013-11-04 10:05:00,44.6,40.4,30.40,ENE,75,0.0,1.0,85,0.00,,---,0.00,VWS V14.01,2013-11-04 15:05:00,
2013-11-04 10:08:00,51.6,42.2,30.41,SSW,211,0.0,2.0,70,0.00,,---,0.00,VWS V14.01,2013-11-04 15:08:00,
2013-11-04 10:10:00,45.1,40.9,30.40,NE,49,0.0,1.0,85,0.00,,---,0.00,VWS V14.01,2013-11-04 15:10:00,
2013-11-04 10:13:00,52.2,41.6,30.41,SSW,206,0.0,4.0,67,0.00,,---,0.00,VWS V14.01,2013-11-04 15:13:00,
2013-11-04 10:15:00,45.8,41.2,30.40,East,82,0.0,1.0,84,0.00,,---,0.00,VWS V14.01,2013-11-04 15:15:00,
2013-11-04 10:18:00,52.8,41.4,30.41,SW,225,4.0,7.0,65,0.00,,---,0.00,VWS V14.01,2013-11-04 15:18:00,
2013-11-04 10:20:00,46.4,41.5,30.40,East,82,0.0,0.0,83,0.00,,---,0.00,VWS V14.01,2013-11-04 15:20:00,
2013-11-04 10:23:00,53.3,41.0,30.40,South,176,5.0,10.0,63,0.00,,---,0.00,VWS V14.01,2013-11-04 15:23:00,
2013-11-04 10:25:00,46.8,41.0,30.40,ENE,58,0.0,2.0,80,0.00,,---,0.00,VWS V14.01,2013-11-04 15:25:00,
2013-11-04 10:28:00,53.5,41.2,30.41,SW,220,4.0,9.0,63,0.00,,---,0.00,VWS V14.01,2013-11-04 15:28:00,
2013-11-04 10:30:00,47.4,42.2,30.41,ENE,57,0.0,0.0,82,0.00,,---,0.00,VWS V14.01,2013-11-04 15:30:00,
2013-11-04 10:33:00,53.5,41.2,30.41,SSE,159,0.0,6.0,63,0.00,,---,0.00,VWS V14.01,2013-11-04 15:33:00,
2013-11-04 10:35:00,47.9,41.4,30.40,ENE,63,0.0,0.0,78,0.00,,---,0.00,VWS V14.01,2013-11-04 15:35:00,
2013-11-04 10:38:00,53.7,41.0,30.40,South,179,4.0,9.0,62,0.00,,---,0.00,VWS V14.01,2013-11-04 15:38:00,
2013-11-04 10:40:00,48.6,42.4,30.40,ESE,123,1.0,2.0,79,0.00,,---,0.00,VWS V14.01,2013-11-04 15:40:00,
2013-11-04 10:43:00,54.0,40.9,30.41,SSE,165,7.0,10.0,61,0.00,,---,0.00,VWS V14.01,2013-11-04 15:43:00,
2013-11-04 10:45:00,49.1,42.5,30.41,South,169,0.0,1.0,78,0.00,,---,0.00,VWS V14.01,2013-11-04 15:45:00,
2013-11-04 10:48:00,54.3,41.2,30.41,East,97,1.0,10.0,61,0.00,,---,0.00,VWS V14.01,2013-11-04 15:48:00,
2013-11-04 10:50:00,49.4,41.8,30.41,WSW,251,0.0,2.0,75,0.00,,---,0.00,VWS V14.01,2013-11-04 15:50:00,
2013-11-04 10:53:00,55.0,41.8,30.42,SSE,155,7.0,11.0,61,0.00,,---,0.00,VWS V14.01,2013-11-04 15:53:00,
2013-11-04 10:55:00,49.9,42.3,30.41,SSE,167,0.0,1.0,75,0.00,,---,0.00,VWS V14.01,2013-11-04 15:55:00,
2013-11-04 10:58:00,55.0,41.4,30.42,WSW,252,5.0,8.0,60,0.00,,---,0.00,VWS V14.01,2013-11-04 15:58:00,
2013-11-04 11:00:00,50.4,41.4,30.41,WNW,297,3.0,4.0,71,0.00,,---,0.00,VWS V14.01,2013-11-04 16:00:00,
2013-11-04 11:03:00,55.5,41.9,30.41,SW,234,11.0,11.0,60,0.00,,---,0.00,VWS V14.01,2013-11-04 16:03:00,
2013-11-04 11:05:00,50.8,42.5,30.41,SE,128,0.0,3.0,73,0.00,,---,0.00,VWS V14.01,2013-11-04 16:05:00,
2013-11-04 11:08:00,56.1,41.1,30.41,SE,141,3.0,10.0,57,0.00,,---,0.00,VWS V14.01,2013-11-04 16:08:00,
2013-11-04 11:10:00,51.7,41.5,30.41,SSE,159,1.0,4.0,68,0.00,,---,0.00,VWS V14.01,2013-11-04 16:10:00,
2013-11-04 11:13:00,56.0,41.0,30.41,SW,214,1.0,8.0,57,0.00,,---,0.00,VWS V14.01,2013-11-04 16:13:00,
2013-11-04 11:15:00,52.4,41.8,30.41,SE,128,3.0,5.0,67,0.00,,---,0.00,VWS V14.01,2013-11-04 16:15:00,
2013-11-04 11:18:00,56.3,42.2,30.41,WSW,250,0.0,5.0,59,0.00,,---,0.00,VWS V14.01,2013-11-04 16:18:00,
2013-11-04 11:20:00,52.9,41.1,30.41,SW,219,6.0,8.0,64,0.00,,---,0.00,VWS V14.01,2013-11-04 16:20:00,
2013-11-04 11:23:00,57.0,42.4,30.41,SE,134,1.0,8.0,58,0.00,,---,0.00,VWS V14.01,2013-11-04 16:23:00,
2013-11-04 11:25:00,53.4,41.5,30.40,WSW,241,3.0,10.0,64,0.00,,---,0.00,VWS V14.01,2013-11-04 16:25:00,
2013-11-04 11:28:00,57.0,40.5,30.41,SSE,160,1.0,9.0,54,0.00,,---,0.00,VWS V14.01,2013-11-04 16:28:00,
2013-11-04 11:30:00,53.5,41.6,30.41,West,263,1.0,9.0,64,0.00,,---,0.00,VWS V14.01,2013-11-04 16:30:00,
2013-11-04 11:33:00,57.6,42.0,30.41,WSW,257,3.0,9.0,56,0.00,,---,0.00,VWS V14.01,2013-11-04 16:33:00,
2013-11-04 11:35:00,53.7,41.8,30.41,SE,138,4.0,6.0,64,0.00,,---,0.00,VWS V14.01,2013-11-04 16:35:00,
2013-11-04 11:38:00,57.9,41.8,30.40,ENE,68,1.0,9.0,55,0.00,,---,0.00,VWS V14.01,2013-11-04 16:38:00,
2013-11-04 11:40:00,53.8,41.1,30.40,SW,217,2.0,9.0,62,0.00,,---,0.00,VWS V14.01,2013-11-04 16:40:00,
2013-11-04 11:43:00,58.3,40.8,30.40,SSW,198,4.0,11.0,52,0.00,,---,0.00,VWS V14.01,2013-11-04 16:43:00,
2013-11-04 11:45:00,54.1,41.4,30.41,SSE,158,1.0,10.0,62,0.00,,---,0.00,VWS V14.01,2013-11-04 16:45:00,
2013-11-04 11:48:00,58.5,41.9,30.40,East,93,1.0,8.0,54,0.00,,---,0.00,VWS V14.01,2013-11-04 16:48:00,
2013-11-04 11:50:00,54.6,41.4,30.42,SW,233,4.0,11.0,61,0.00,,---,0.00,VWS V14.01,2013-11-04 16:50:00,
2013-11-04 11:53:00,59.7,41.0,30.40,SW,217,0.0,4.0,50,0.00,,---,0.00,VWS V14.01,2013-11-04 16:53:00,
2013-11-04 11:55:00,55.0,41.0,30.42,SSE,153,3.0,11.0,59,0.00,,---,0.00,VWS V14.01,2013-11-04 16:55:00,
2013-11-04 11:58:00,59.9,42.2,30.40,ENE,60,4.0,6.0,52,0.00,,---,0.00,VWS V14.01,2013-11-04 16:58:00,
2013-11-04 12:00:00,55.0,41.4,30.41,SE,141,2.0,8.0,60,0.00,,---,0.00,VWS V14.01,2013-11-04 17:00:00,
2013-11-04 12:03:00,59.6,40.4,30.40,SSW,192,7.0,12.0,49,0.00,,---,0.00,VWS V14.01,2013-11-04 17:03:00,
2013-11-04 12:05:00,55.7,42.0,30.41,WSW,239,3.0,11.0,60,0.00,,---,0.00,VWS V14.01,2013-11-04 17:05:00,
2013-11-04 12:08:00,59.6,41.5,30.40,SSW,203,1.0,6.0,51,0.00,,---,0.00,VWS V14.01,2013-11-04 17:08:00,
2013-11-04 12:10:00,56.1,41.1,30.41,South,174,6.0,10.0,57,0.00,,---,0.00,VWS V14.01,2013-11-04 17:10:00,
2013-11-04 12:13:00,59.9,40.2,30.40,SW,226,8.0,10.0,48,0.00,,---,0.00,VWS V14.01,2013-11-04 17:13:00,
2013-11-04 12:15:00,56.0,41.0,30.41,SW,233,0.0,8.0,57,0.00,,---,0.00,VWS V14.01,2013-11-04 17:15:00,
2013-11-04 12:18:00,60.2,41.0,30.40,SE,134,3.0,7.0,49,0.00,,---,0.00,VWS V14.01,2013-11-04 17:18:00,
2013-11-04 12:20:00,56.5,41.9,30.41,West,278,0.0,5.0,58,0.00,,---,0.00,VWS V14.01,2013-11-04 17:20:00,
2013-11-04 12:23:00,60.7,40.9,30.39,WSW,249,2.0,12.0,48,0.00,,---,0.00,VWS V14.01,2013-11-04 17:23:00,
2013-11-04 12:25:00,57.1,41.6,30.42,WSW,250,9.0,9.0,56,0.00,,---,0.00,VWS V14.01,2013-11-04 17:25:00,
2013-11-04 12:28:00,60.2,40.5,30.39,East,94,1.0,12.0,48,0.00,,---,0.00,VWS V14.01,2013-11-04 17:28:00,
2013-11-04 12:30:00,56.9,40.9,30.41,SE,137,2.0,9.0,55,0.00,,---,0.00,VWS V14.01,2013-11-04 17:30:00,
2013-11-04 12:33:00,60.5,40.2,30.38,SW,224,4.0,10.0,47,0.00,,---,0.00,VWS V14.01,2013-11-04 17:33:00,
2013-11-04 12:35:00,57.7,41.2,30.41,SW,233,9.0,9.0,54,0.00,,---,0.00,VWS V14.01,2013-11-04 17:35:00,
2013-11-04 12:38:00,60.8,40.5,30.38,ESE,107,1.0,12.0,47,0.00,,---,0.00,VWS V14.01,2013-11-04 17:38:00,
2013-11-04 12:40:00,58.0,41.5,30.40,ESE,118,3.0,9.0,54,0.00,,---,0.00,VWS V14.01,2013-11-04 17:40:00,
2013-11-04 12:43:00,61.1,40.7,30.38,WSW,252,3.0,9.0,47,0.00,,---,0.00,VWS V14.01,2013-11-04 17:43:00,
2013-11-04 12:45:00,58.2,40.7,30.40,West,269,4.0,11.0,52,0.00,,---,0.00,VWS V14.01,2013-11-04 17:45:00,
2013-11-04 12:48:00,61.1,40.2,30.37,SSW,198,5.0,11.0,46,0.00,,---,0.00,VWS V14.01,2013-11-04 17:48:00,
2013-11-04 12:50:00,58.8,42.2,30.40,SSE,168,2.0,8.0,54,0.00,,---,0.00,VWS V14.01,2013-11-04 17:50:00,
2013-11-04 12:53:00,61.4,40.5,30.37,SE,128,5.0,8.0,46,0.00,,---,0.00,VWS V14.01,2013-11-04 17:53:00,
2013-11-04 12:55:00,59.6,41.5,30.40,South,181,3.0,4.0,51,0.00,,---,0.00,VWS V14.01,2013-11-04 17:55:00,
2013-11-04 12:58:00,61.6,40.6,30.37,WSW,237,6.0,11.0,46,0.00,,---,0.00,VWS V14.01,2013-11-04 17:58:00,
2013-11-04 13:00:00,60.0,41.8,30.40,South,172,1.0,6.0,51,0.00,,---,0.00,VWS V14.01,2013-11-04 18:00:00,
2013-11-04 13:03:00,61.8,40.8,30.36,ENE,74,6.0,7.0,46,0.00,,---,0.00,VWS V14.01,2013-11-04 18:03:00,
2013-11-04 13:05:00,59.5,40.9,30.40,SSW,193,4.0,12.0,50,0.00,,---,0.00,VWS V14.01,2013-11-04 18:05:00,
2013-11-04 13:08:00,62.6,40.4,30.37,ESE,105,5.0,8.0,44,0.00,,---,0.00,VWS V14.01,2013-11-04 18:08:00,
2013-11-04 13:10:00,59.7,41.6,30.40,SSE,163,3.0,6.0,51,0.00,,---,0.00,VWS V14.01,2013-11-04 18:10:00,
2013-11-04 13:13:00,62.2,40.6,30.36,SSE,161,7.0,9.0,45,0.00,,---,0.00,VWS V14.01,2013-11-04 18:13:00,
2013-11-04 13:15:00,59.8,40.1,30.40,ESE,118,0.0,10.0,48,0.00,,---,0.00,VWS V14.01,2013-11-04 18:15:00,
2013-11-04 13:18:00,62.5,41.5,30.36,West,262,4.0,10.0,46,0.00,,---,0.00,VWS V14.01,2013-11-04 18:18:00,
2013-11-04 13:20:00,60.3,41.1,30.39,North,6,2.0,7.0,49,0.00,,---,0.00,VWS V14.01,2013-11-04 18:20:00,
2013-11-04 13:23:00,63.2,42.1,30.36,South,175,2.0,6.0,46,0.00,,---,0.00,VWS V14.01,2013-11-04 18:23:00,
2013-11-04 13:25:00,60.7,40.4,30.39,SE,135,4.0,12.0,47,0.00,,---,0.00,VWS V14.01,2013-11-04 18:25:00,
2013-11-04 13:28:00,63.4,41.1,30.36,WSW,239,2.0,6.0,44,0.00,,---,0.00,VWS V14.01,2013-11-04 18:28:00,
2013-11-04 13:30:00,60.2,41.0,30.39,SSW,200,2.0,12.0,49,0.00,,---,0.00,VWS V14.01,2013-11-04 18:30:00,
2013-11-04 13:33:00,62.7,39.9,30.36,SE,128,1.0,10.0,43,0.00,,---,0.00,VWS V14.01,2013-11-04 18:33:00,
2013-11-04 13:35:00,60.6,40.8,30.38,SSW,195,2.0,10.0,48,0.00,,---,0.00,VWS V14.01,2013-11-04 18:35:00,
2013-11-04 13:38:00,62.9,40.1,30.36,South,181,7.0,9.0,43,0.00,,---,0.00,VWS V14.01,2013-11-04 18:38:00,
2013-11-04 13:40:00,60.8,40.5,30.38,SE,134,2.0,12.0,47,0.00,,---,0.00,VWS V14.01,2013-11-04 18:40:00,
2013-11-04 13:43:00,63.2,39.8,30.35,SW,216,1.0,4.0,42,0.00,,---,0.00,VWS V14.01,2013-11-04 18:43:00,
2013-11-04 13:45:00,61.2,40.8,30.38,SE,134,7.0,9.0,47,0.00,,---,0.00,VWS V14.01,2013-11-04 18:45:00,
2013-11-04 13:48:00,63.2,39.8,30.35,SW,224,7.0,8.0,42,0.00,,---,0.00,VWS V14.01,2013-11-04 18:48:00,
2013-11-04 13:50:00,61.2,40.3,30.37,South,176,5.0,11.0,46,0.00,,---,0.00,VWS V14.01,2013-11-04 18:50:00,
2013-11-04 13:53:00,63.0,39.6,30.35,NNE,23,4.0,16.0,42,0.00,,---,0.00,VWS V14.01,2013-11-04 18:53:00,
2013-11-04 13:55:00,61.4,39.9,30.37,SSW,203,3.0,8.0,45,0.00,,---,0.00,VWS V14.01,2013-11-04 18:55:00,
2013-11-04 13:58:00,63.0,39.6,30.35,WSW,243,7.0,11.0,42,0.00,,---,0.00,VWS V14.01,2013-11-04 18:58:00,
2013-11-04 14:00:00,61.6,40.1,30.37,SSW,199,4.0,11.0,45,0.00,,---,0.00,VWS V14.01,2013-11-04 19:00:00,
2013-11-04 14:03:00,63.6,40.1,30.35,West,271,1.0,6.0,42,0.00,,---,0.00,VWS V14.01,2013-11-04 19:03:00,
2013-11-04 14:05:00,61.9,41.5,30.36,ESE,120,2.0,7.0,47,0.00,,---,0.00,VWS V14.01,2013-11-04 19:05:00,
2013-11-04 14:08:00,63.6,40.1,30.35,East,94,5.0,10.0,42,0.00,,---,0.00,VWS V14.01,2013-11-04 19:08:00,
2013-11-04 14:10:00,62.5,40.9,30.37,SSE,159,3.0,8.0,45,0.00,,---,0.00,VWS V14.01,2013-11-04 19:10:00,
2013-11-04 14:13:00,63.7,40.8,30.35,SSE,164,1.0,7.0,43,0.00,,---,0.00,VWS V14.01,2013-11-04 19:13:00,
2013-11-04 14:15:00,62.3,40.7,30.36,WSW,242,2.0,9.0,45,0.00,,---,0.00,VWS V14.01,2013-11-04 19:15:00,
2013-11-04 14:18:00,64.5,40.3,30.35,ENE,63,1.0,6.0,41,0.00,,---,0.00,VWS V14.01,2013-11-04 19:18:00,
2013-11-04 14:20:00,62.6,41.0,30.36,SSE,155,3.0,10.0,45,0.00,,---,0.00,VWS V14.01,2013-11-04 19:20:00,
2013-11-04 14:23:00,64.1,40.6,30.35,South,181,3.0,9.0,42,0.00,,---,0.00,VWS V14.01,2013-11-04 19:23:00,
2013-11-04 14:25:00,63.2,41.5,30.36,South,169,1.0,6.0,45,0.00,,---,0.00,VWS V14.01,2013-11-04 19:25:00,
2013-11-04 14:28:00,64.6,41.0,30.35,SE,124,1.0,6.0,42,0.00,,---,0.00,VWS V14.01,2013-11-04 19:28:00,
2013-11-04 14:30:00,63.4,41.1,30.36,East,83,3.0,6.0,44,0.00,,---,0.00,VWS V14.01,2013-11-04 19:30:00,
2013-11-04 14:33:00,64.1,39.9,30.34,SE,138,1.0,8.0,41,0.00,,---,0.00,VWS V14.01,2013-11-04 19:33:00,
2013-11-04 14:35:00,62.6,41.0,30.36,SE,142,6.0,10.0,45,0.00,,---,0.00,VWS V14.01,2013-11-04 19:35:00,
2013-11-04 14:38:00,64.0,40.5,30.35,SE,143,2.0,6.0,42,0.00,,---,0.00,VWS V14.01,2013-11-04 19:38:00,
2013-11-04 14:40:00,63.0,40.2,30.36,SE,146,2.0,9.0,43,0.00,,---,0.00,VWS V14.01,2013-11-04 19:40:00,
2013-11-04 14:43:00,64.3,40.1,30.35,ESE,114,5.0,7.0,41,0.00,,---,0.00,VWS V14.01,2013-11-04 19:43:00,
2013-11-04 14:45:00,63.2,40.3,30.35,NNE,25,0.0,4.0,43,0.00,,---,0.00,VWS V14.01,2013-11-04 19:45:00,
2013-11-04 14:48:00,63.9,39.1,30.34,SSW,200,5.0,8.0,40,0.00,,---,0.00,VWS V14.01,2013-11-04 19:48:00,
2013-11-04 14:50:00,63.1,40.3,30.35,West,281,2.0,10.0,43,0.00,,---,0.00,VWS V14.01,2013-11-04 19:50:00,
2013-11-04 14:53:00,64.2,39.4,30.34,WSW,242,2.0,7.0,40,0.00,,---,0.00,VWS V14.01,2013-11-04 19:53:00,
2013-11-04 14:55:00,63.1,40.3,30.35,SE,141,3.0,16.0,43,0.00,,---,0.00,VWS V14.01,2013-11-04 19:55:00,
2013-11-04 14:58:00,64.1,39.9,30.34,SSE,153,3.0,7.0,41,0.00,,---,0.00,VWS V14.01,2013-11-04 19:58:00,
2013-11-04 15:00:00,63.1,40.3,30.35,SW,224,3.0,11.0,43,0.00,,---,0.00,VWS V14.01,2013-11-04 20:00:00,
2013-11-04 15:04:00,64.1,39.3,30.34,East,97,0.0,8.0,40,0.00,,---,0.00,VWS V14.01,2013-11-04 20:04:00,
2013-11-04 15:05:00,63.5,40.0,30.35,SE,141,1.0,6.0,42,0.00,,---,0.00,VWS V14.01,2013-11-04 20:05:00,
2013-11-04 15:09:00,64.1,39.3,30.34,SE,146,2.0,7.0,40,0.00,,---,0.00,VWS V14.01,2013-11-04 20:09:00,
2013-11-04 15:10:00,63.5,40.0,30.35,ESE,109,2.0,10.0,42,0.00,,---,0.00,VWS V14.01,2013-11-04 20:10:00,
2013-11-04 15:14:00,64.6,39.8,30.34,SSE,157,5.0,5.0,40,0.00,,---,0.00,VWS V14.01,2013-11-04 20:14:00,
2013-11-04 15:15:00,63.9,41.0,30.35,ENE,72,0.0,7.0,43,0.00,,---,0.00,VWS V14.01,2013-11-04 20:15:00,
2013-11-04 15:19:00,64.5,39.0,30.34,ESE,117,8.0,8.0,39,0.00,,---,0.00,VWS V14.01,2013-11-04 20:19:00,
2013-11-04 15:20:00,64.5,40.3,30.35,ENE,63,0.0,6.0,41,0.00,,---,0.00,VWS V14.01,2013-11-04 20:20:00,
2013-11-04 15:24:00,64.4,40.2,30.33,SW,235,3.0,9.0,41,0.00,,---,0.00,VWS V14.01,2013-11-04 20:24:00,
2013-11-04 15:25:00,64.1,40.6,30.35,SW,232,6.0,9.0,42,0.00,,---,0.00,VWS V14.01,2013-11-04 20:25:00,
2013-11-04 15:29:00,64.1,38.7,30.33,SSE,155,4.0,8.0,39,0.00,,---,0.00,VWS V14.01,2013-11-04 20:29:00,
2013-11-04 15:30:00,64.6,40.4,30.35,South,176,1.0,6.0,41,0.00,,---,0.00,VWS V14.01,2013-11-04 20:30:00,
2013-11-04 15:34:00,64.5,39.0,30.33,SSE,157,3.0,8.0,39,0.00,,---,0.00,VWS V14.01,2013-11-04 20:34:00,
2013-11-04 15:35:00,64.1,39.9,30.34,ESE,110,1.0,8.0,41,0.00,,---,0.00,VWS V14.01,2013-11-04 20:35:00,
2013-11-04 15:39:00,64.8,39.3,30.33,NE,56,0.0,8.0,39,0.00,,---,0.00,VWS V14.01,2013-11-04 20:39:00,
2013-11-04 15:40:00,64.0,40.5,30.35,ENE,69,5.0,6.0,42,0.00,,---,0.00,VWS V14.01,2013-11-04 20:40:00,
2013-11-04 15:44:00,64.6,39.1,30.33,NE,53,5.0,7.0,39,0.00,,---,0.00,VWS V14.01,2013-11-04 20:44:00,
2013-11-04 15:45:00,64.3,39.5,30.35,ESE,112,8.0,10.0,40,0.00,,---,0.00,VWS V14.01,2013-11-04 20:45:00,
2013-11-04 15:49:00,64.7,39.8,30.33,South,181,3.0,6.0,40,0.00,,---,0.00,VWS V14.01,2013-11-04 20:49:00,
2013-11-04 15:50:00,63.9,39.8,30.34,SSE,148,3.0,8.0,41,0.00,,---,0.00,VWS V14.01,2013-11-04 20:50:00,
2013-11-04 15:54:00,64.6,38.4,30.33,SSE,150,2.0,7.0,38,0.00,,---,0.00,VWS V14.01,2013-11-04 20:54:00,
2013-11-04 15:55:00,64.2,39.4,30.34,SSW,201,4.0,7.0,40,0.00,,---,0.00,VWS V14.01,2013-11-04 20:55:00,
2013-11-04 15:59:00,64.5,39.7,30.33,ENE,72,0.0,6.0,40,0.00,,---,0.00,VWS V14.01,2013-11-04 20:59:00,
2013-11-04 16:00:00,64.2,40.0,30.34,SW,236,6.0,8.0,41,0.00,,---,0.00,VWS V14.01,2013-11-04 21:00:00,
2013-11-04 16:04:00,64.3,39.5,30.32,ESE,104,1.0,7.0,40,0.00,,---,0.00,VWS V14.01,2013-11-04 21:04:00,
2013-11-04 16:05:00,64.0,39.2,30.34,SE,129,5.0,8.0,40,0.00,,---,0.00,VWS V14.01,2013-11-04 21:05:00,
2013-11-04 16:09:00,64.0,39.8,30.33,ESE,108,1.0,7.0,41,0.00,,---,0.00,VWS V14.01,2013-11-04 21:09:00,
2013-11-04 16:10:00,64.2,39.4,30.34,South,175,1.0,7.0,40,0.00,,---,0.00,VWS V14.01,2013-11-04 21:10:00,
2013-11-04 16:14:00,64.0,39.8,30.33,SE,129,0.0,9.0,41,0.00,,---,0.00,VWS V14.01,2013-11-04 21:14:00,
2013-11-04 16:15:00,64.6,39.1,30.34,SSW,208,1.0,6.0,39,0.00,,---,0.00,VWS V14.01,2013-11-04 21:15:00,
2013-11-04 16:19:00,64.1,40.6,30.33,East,96,3.0,5.0,42,0.00,,---,0.00,VWS V14.01,2013-11-04 21:19:00,
2013-11-04 16:20:00,64.4,38.3,30.34,SE,146,4.0,8.0,38,0.00,,---,0.00,VWS V14.01,2013-11-04 21:20:00,
2013-11-04 16:24:00,64.0,39.8,30.33,SE,137,2.0,9.0,41,0.00,,---,0.00,VWS V14.01,2013-11-04 21:24:00,
2013-11-04 16:25:00,64.3,39.5,30.33,SSE,160,4.0,9.0,40,0.00,,---,0.00,VWS V14.01,2013-11-04 21:25:00,
2013-11-04 16:29:00,63.9,39.8,30.33,SE,137,1.0,6.0,41,0.00,,---,0.00,VWS V14.01,2013-11-04 21:29:00,
2013-11-04 16:30:00,64.1,39.3,30.33,WSW,247,0.0,8.0,40,0.00,,---,0.00,VWS V14.01,2013-11-04 21:30:00,
2013-11-04 16:34:00,63.5,40.6,30.33,ESE,115,3.0,5.0,43,0.00,,---,0.00,VWS V14.01,2013-11-04 21:34:00,
2013-11-04 16:35:00,64.5,39.0,30.33,South,190,1.0,8.0,39,0.00,,---,0.00,VWS V14.01,2013-11-04 21:35:00,
2013-11-04 16:39:00,63.1,40.3,30.33,ESE,109,6.0,6.0,43,0.00,,---,0.00,VWS V14.01,2013-11-04 21:39:00,
2013-11-04 16:40:00,64.7,39.2,30.33,SSE,148,5.0,8.0,39,0.00,,---,0.00,VWS V14.01,2013-11-04 21:40:00,
2013-11-04 16:44:00,63.1,40.3,30.33,SE,134,0.0,5.0,43,0.00,,---,0.00,VWS V14.01,2013-11-04 21:44:00,
2013-11-04 16:45:00,64.5,39.0,30.33,SE,131,1.0,7.0,39,0.00,,---,0.00,VWS V14.01,2013-11-04 21:45:00,
2013-11-04 16:49:00,63.1,40.3,30.33,SSW,210,0.0,6.0,43,0.00,,---,0.00,VWS V14.01,2013-11-04 21:49:00,
2013-11-04 16:50:00,64.7,39.2,30.33,SSW,207,2.0,6.0,39,0.00,,---,0.00,VWS V14.01,2013-11-04 21:50:00,
2013-11-04 16:54:00,63.3,40.5,30.33,East,96,3.0,4.0,43,0.00,,---,0.00,VWS V14.01,2013-11-04 21:54:00,
2013-11-04 16:55:00,64.5,39.0,30.33,East,85,0.0,7.0,39,0.00,,---,0.00,VWS V14.01,2013-11-04 21:55:00,
2013-11-04 16:59:00,62.3,40.1,30.33,SE,129,0.0,5.0,44,0.00,,---,0.00,VWS V14.01,2013-11-04 21:59:00,
2013-11-04 17:00:00,64.5,39.7,30.33,SSE,155,6.0,6.0,40,0.00,,---,0.00,VWS V14.01,2013-11-04 22:00:00,
2013-11-04 17:04:00,61.6,39.5,30.33,West,265,0.0,4.0,44,0.00,,---,0.00,VWS V14.01,2013-11-04 22:04:00,
2013-11-04 17:05:00,64.3,40.1,30.32,SE,141,0.0,7.0,41,0.00,,---,0.00,VWS V14.01,2013-11-04 22:05:00,
2013-11-04 17:09:00,61.1,39.6,30.32,SSE,153,0.0,9.0,45,0.00,,---,0.00,VWS V14.01,2013-11-04 22:09:00,
2013-11-04 17:10:00,63.9,39.8,30.33,South,180,5.0,7.0,41,0.00,,---,0.00,VWS V14.01,2013-11-04 22:10:00,
2013-11-04 17:14:00,60.5,39.6,30.32,SE,129,0.0,2.0,46,0.00,,---,0.00,VWS V14.01,2013-11-04 22:14:00,
2013-11-04 17:15:00,64.0,39.8,30.33,SE,129,1.0,9.0,41,0.00,,---,0.00,VWS V14.01,2013-11-04 22:15:00,
2013-11-04 17:19:00,60.2,39.4,30.32,SE,136,1.0,2.0,46,0.00,,---,0.00,VWS V14.01,2013-11-04 22:19:00,
2013-11-04 17:20:00,64.1,39.9,30.33,South,191,0.0,5.0,41,0.00,,---,0.00,VWS V14.01,2013-11-04 22:20:00,
2013-11-04 17:24:00,59.8,39.5,30.33,WSW,245,0.0,1.0,47,0.00,,---,0.00,VWS V14.01,2013-11-04 22:24:00,
2013-11-04 17:25:00,64.0,39.8,30.33,SW,214,3.0,9.0,41,0.00,,---,0.00,VWS V14.01,2013-11-04 22:25:00,
2013-11-04 17:29:00,59.4,39.7,30.33,South,185,0.0,1.0,48,0.00,,---,0.00,VWS V14.01,2013-11-04 22:29:00,
2013-11-04 17:30:00,63.8,40.3,30.33,SSE,159,0.0,6.0,42,0.00,,---,0.00,VWS V14.01,2013-11-04 22:30:00,
2013-11-04 17:34:00,58.7,40.1,30.32,ESE,110,0.0,1.0,50,0.00,,---,0.00,VWS V14.01,2013-11-04 22:34:00,
2013-11-04 17:35:00,63.5,40.0,30.33,East,83,0.0,5.0,42,0.00,,---,0.00,VWS V14.01,2013-11-04 22:35:00,
2013-11-04 17:39:00,58.2,40.2,30.32,ESE,102,0.0,2.0,51,0.00,,---,0.00,VWS V14.01,2013-11-04 22:39:00,
2013-11-04 17:40:00,63.1,39.7,30.33,ESE,117,3.0,8.0,42,0.00,,---,0.00,VWS V14.01,2013-11-04 22:40:00,
2013-11-04 17:44:00,57.6,40.1,30.32,WSW,252,0.0,1.0,52,0.00,,---,0.00,VWS V14.01,2013-11-04 22:44:00,
2013-11-04 17:45:00,63.1,40.3,30.33,SSE,147,2.0,5.0,43,0.00,,---,0.00,VWS V14.01,2013-11-04 22:45:00,
2013-11-04 17:49:00,57.2,40.7,30.33,SW,231,1.0,1.0,54,0.00,,---,0.00,VWS V14.01,2013-11-04 22:49:00,
2013-11-04 17:50:00,63.1,40.3,30.33,SSE,161,0.0,6.0,43,0.00,,---,0.00,VWS V14.01,2013-11-04 22:50:00,
2013-11-04 17:54:00,56.9,40.9,30.32,East,91,0.0,1.0,55,0.00,,---,0.00,VWS V14.01,2013-11-04 22:54:00,
2013-11-04 17:55:00,63.2,40.3,30.33,ENE,58,3.0,5.0,43,0.00,,---,0.00,VWS V14.01,2013-11-04 22:55:00,
2013-11-04 17:59:00,56.4,40.5,30.33,WSW,258,0.0,1.0,55,0.00,,---,0.00,VWS V14.01,2013-11-04 22:59:00,
2013-11-04 18:00:00,62.2,40.0,30.33,SSE,148,2.0,5.0,44,0.00,,---,0.00,VWS V14.01,2013-11-04 23:00:00,
2013-11-04 18:04:00,56.1,42.0,30.33,West,259,0.0,1.0,59,0.00,,---,0.00,VWS V14.01,2013-11-04 23:04:00,
2013-11-04 18:05:00,61.6,39.5,30.33,West,265,0.0,4.0,44,0.00,,---,0.00,VWS V14.01,2013-11-04 23:05:00,
2013-11-04 18:09:00,55.2,42.0,30.33,West,259,0.0,0.0,61,0.00,,---,0.00,VWS V14.01,2013-11-04 23:09:00,
2013-11-04 18:10:00,61.0,39.5,30.32,South,186,1.0,9.0,45,0.00,,---,0.00,VWS V14.01,2013-11-04 23:10:00,
2013-11-04 18:14:00,54.4,42.1,30.34,West,259,0.0,1.0,63,0.00,,---,0.00,VWS V14.01,2013-11-04 23:14:00,
2013-11-04 18:15:00,60.5,39.6,30.32,SW,226,0.0,3.0,46,0.00,,---,0.00,VWS V14.01,2013-11-04 23:15:00,
2013-11-04 18:19:00,54.6,41.4,30.34,SW,236,0.0,3.0,61,0.00,,---,0.00,VWS V14.01,2013-11-04 23:19:00,
2013-11-04 18:20:00,60.2,39.4,30.32,SE,136,0.0,2.0,46,0.00,,---,0.00,VWS V14.01,2013-11-04 23:20:00,
2013-11-04 18:24:00,54.4,42.1,30.35,West,262,0.0,1.0,63,0.00,,---,0.00,VWS V14.01,2013-11-04 23:24:00,
2013-11-04 18:25:00,59.8,39.5,30.33,WSW,245,0.0,1.0,47,0.00,,---,0.00,VWS V14.01,2013-11-04 23:25:00,
2013-11-04 18:29:00,54.2,41.1,30.35,WSW,243,0.0,0.0,61,0.00,,---,0.00,VWS V14.01,2013-11-04 23:29:00,
2013-11-04 18:30:00,59.3,39.6,30.33,South,185,0.0,1.0,48,0.00,,---,0.00,VWS V14.01,2013-11-04 23:30:00,
2013-11-04 18:34:00,54.1,40.5,30.34,WSW,243,0.0,1.0,60,0.00,,---,0.00,VWS V14.01,2013-11-04 23:34:00,
2013-11-04 18:35:00,58.6,40.0,30.32,SE,138,0.0,1.0,50,0.00,,---,0.00,VWS V14.01,2013-11-04 23:35:00,
2013-11-04 18:39:00,53.9,42.0,30.34,WSW,243,0.0,0.0,64,0.00,,---,0.00,VWS V14.01,2013-11-04 23:39:00,
2013-11-04 18:40:00,58.1,40.6,30.32,ESE,102,0.0,2.0,52,0.00,,---,0.00,VWS V14.01,2013-11-04 23:40:00,
2013-11-04 18:44:00,53.6,41.3,30.35,WSW,243,0.0,0.0,63,0.00,,---,0.00,VWS V14.01,2013-11-04 23:44:00,
2013-11-04 18:45:00,57.6,40.6,30.32,WSW,252,0.0,1.0,53,0.00,,---,0.00,VWS V14.01,2013-11-04 23:45:00,
2013-11-04 18:49:00,53.3,42.6,30.35,WSW,243,0.0,1.0,67,0.00,,---,0.00,VWS V14.01,2013-11-04 23:49:00,
2013-11-04 18:50:00,57.2,40.7,30.33,SSE,147,0.0,3.0,54,0.00,,---,0.00,VWS V14.01,2013-11-04 23:50:00,
2013-11-04 18:54:00,53.0,42.3,30.35,WSW,243,0.0,0.0,67,0.00,,---,0.00,VWS V14.01,2013-11-04 23:54:00,
2013-11-04 18:55:00,56.9,40.9,30.32,East,91,0.0,1.0,55,0.00,,---,0.00,VWS V14.01,2013-11-04 23:55:00,
2013-11-04 18:59:00,52.6,42.0,30.36,WSW,243,0.0,0.0,67,0.00,,---,0.00,VWS V14.01,2013-11-04 23:59:00,
2013-11-04 19:00:00,56.4,40.5,30.33,WSW,258,0.0,1.0,55,0.00,,---,0.00,VWS V14.01,2013-11-05 00:00:00,
2013-11-04 19:04:00,52.3,42.8,30.36,WSW,243,0.0,0.0,70,0.00,,---,0.00,VWS V14.01,2013-11-05 00:04:00,
2013-11-04 19:05:00,56.0,41.9,30.33,West,259,0.0,1.0,59,0.00,,---,0.00,VWS V14.01,2013-11-05 00:05:00,
2013-11-04 19:09:00,51.7,42.6,30.36,WSW,243,0.0,0.0,71,0.00,,---,0.00,VWS V14.01,2013-11-05 00:09:00,
2013-11-04 19:10:00,55.1,41.9,30.33,West,259,0.0,0.0,61,0.00,,---,0.00,VWS V14.01,2013-11-05 00:10:00,
2013-11-04 19:14:00,51.4,42.3,30.36,WSW,243,0.0,0.0,71,0.00,,---,0.00,VWS V14.01,2013-11-05 00:14:00,
2013-11-04 19:15:00,54.4,42.1,30.34,SW,236,0.0,1.0,63,0.00,,---,0.00,VWS V14.01,2013-11-05 00:15:00,
2013-11-04 19:19:00,51.2,42.1,30.37,WSW,243,0.0,0.0,71,0.00,,---,0.00,VWS V14.01,2013-11-05 00:19:00,
2013-11-04 19:20:00,54.6,41.4,30.34,SW,236,0.0,3.0,61,0.00,,---,0.00,VWS V14.01,2013-11-05 00:20:00,
2013-11-04 19:24:00,50.9,42.2,30.36,WSW,243,0.0,0.0,72,0.00,,---,0.00,VWS V14.01,2013-11-05 00:24:00,
2013-11-04 19:25:00,54.4,42.1,30.35,West,262,0.0,1.0,63,0.00,,---,0.00,VWS V14.01,2013-11-05 00:25:00,
2013-11-04 19:29:00,50.6,42.3,30.37,WSW,243,0.0,0.0,73,0.00,,---,0.00,VWS V14.01,2013-11-05 00:29:00,
2013-11-04 19:30:00,54.2,41.1,30.35,WSW,243,0.0,0.0,61,0.00,,---,0.00,VWS V14.01,2013-11-05 00:30:00,
2013-11-04 19:34:00,50.3,42.0,30.36,WSW,243,0.0,0.0,73,0.00,,---,0.00,VWS V14.01,2013-11-05 00:34:00,
2013-11-04 19:35:00,54.1,40.5,30.34,WSW,243,0.0,1.0,60,0.00,,---,0.00,VWS V14.01,2013-11-05 00:35:00,
2013-11-04 19:39:00,50.2,41.9,30.36,WSW,243,0.0,0.0,73,0.00,,---,0.00,VWS V14.01,2013-11-05 00:39:00,
2013-11-04 19:40:00,53.9,42.0,30.34,WSW,243,0.0,0.0,64,0.00,,---,0.00,VWS V14.01,2013-11-05 00:40:00,
2013-11-04 19:44:00,50.1,42.2,30.36,WSW,243,0.0,0.0,74,0.00,,---,0.00,VWS V14.01,2013-11-05 00:44:00,
2013-11-04 19:45:00,53.6,41.7,30.35,WSW,243,0.0,0.0,64,0.00,,---,0.00,VWS V14.01,2013-11-05 00:45:00,
2013-11-04 19:49:00,49.5,41.9,30.36,WSW,243,0.0,0.0,75,0.00,,---,0.00,VWS V14.01,2013-11-05 00:49:00,
2013-11-04 19:50:00,53.3,42.2,30.35,WSW,243,0.0,1.0,66,0.00,,---,0.00,VWS V14.01,2013-11-05 00:50:00,
2013-11-04 19:54:00,49.1,41.9,30.36,South,178,0.0,1.0,76,0.00,,---,0.00,VWS V14.01,2013-11-05 00:54:00,
2013-11-04 19:55:00,53.0,42.3,30.35,WSW,243,0.0,0.0,67,0.00,,---,0.00,VWS V14.01,2013-11-05 00:55:00,
2013-11-04 19:59:00,49.3,41.0,30.36,WSW,242,0.0,1.0,73,0.00,,---,0.00,VWS V14.01,2013-11-05 00:59:00,
2013-11-04 20:00:00,52.6,42.0,30.36,WSW,243,0.0,0.0,67,0.00,,---,0.00,VWS V14.01,2013-11-05 01:00:00,
2013-11-04 20:04:00,50.4,41.0,30.36,WSW,255,0.0,1.0,70,0.00,,---,0.00,VWS V14.01,2013-11-05 01:04:00,
2013-11-04 20:05:00,52.3,42.8,30.36,WSW,243,0.0,0.0,70,0.00,,---,0.00,VWS V14.01,2013-11-05 01:05:00,
2013-11-04 20:09:00,51.2,40.6,30.36,SSE,155,0.0,0.0,67,0.00,,---,0.00,VWS V14.01,2013-11-05 01:09:00,
2013-11-04 20:10:00,51.7,42.6,30.36,WSW,243,0.0,0.0,71,0.00,,---,0.00,VWS V14.01,2013-11-05 01:10:00,
2013-11-04 20:14:00,50.8,42.8,30.37,SSE,155,0.0,0.0,74,0.00,,---,0.00,VWS V14.01,2013-11-05 01:14:00,
2013-11-04 20:15:00,51.3,42.2,30.36,WSW,243,0.0,0.0,71,0.00,,---,0.00,VWS V14.01,2013-11-05 01:15:00,
2013-11-04 20:19:00,50.1,42.2,30.36,SW,231,0.0,1.0,74,0.00,,---,0.00,VWS V14.01,2013-11-05 01:19:00,
2013-11-04 20:20:00,51.2,42.1,30.37,WSW,243,0.0,0.0,71,0.00,,---,0.00,VWS V14.01,2013-11-05 01:20:00,
2013-11-04 20:24:00,49.8,42.2,30.36,SW,231,0.0,0.0,75,0.00,,---,0.00,VWS V14.01,2013-11-05 01:24:00,
2013-11-04 20:25:00,50.9,42.2,30.36,WSW,243,0.0,0.0,72,0.00,,---,0.00,VWS V14.01,2013-11-05 01:25:00,
2013-11-04 20:29:00,49.4,42.5,30.36,SW,231,0.0,0.0,77,0.00,,---,0.00,VWS V14.01,2013-11-05 01:29:00,
2013-11-04 20:30:00,50.6,42.3,30.37,WSW,243,0.0,0.0,73,0.00,,---,0.00,VWS V14.01,2013-11-05 01:30:00,
2013-11-04 20:34:00,48.7,42.2,30.36,SW,231,0.0,0.0,78,0.00,,---,0.00,VWS V14.01,2013-11-05 01:34:00,
2013-11-04 20:35:00,50.3,42.0,30.36,WSW,243,0.0,0.0,73,0.00,,---,0.00,VWS V14.01,2013-11-05 01:35:00,
2013-11-04 20:39:00,48.9,42.0,30.37,West,262,0.0,1.0,77,0.00,,---,0.00,VWS V14.01,2013-11-05 01:39:00,
2013-11-04 20:40:00,50.2,41.9,30.36,WSW,243,0.0,0.0,73,0.00,,---,0.00,VWS V14.01,2013-11-05 01:40:00,
2013-11-04 20:44:00,49.2,41.3,30.37,NW,307,0.0,1.0,74,0.00,,---,0.00,VWS V14.01,2013-11-05 01:44:00,
2013-11-04 20:45:00,50.0,42.0,30.36,WSW,243,0.0,0.0,74,0.00,,---,0.00,VWS V14.01,2013-11-05 01:45:00,
2013-11-04 20:49:00,49.8,41.2,30.37,West,262,0.0,2.0,72,0.00,,---,0.00,VWS V14.01,2013-11-05 01:49:00,
2013-11-04 20:50:00,49.5,41.9,30.36,WSW,243,0.0,0.0,75,0.00,,---,0.00,VWS V14.01,2013-11-05 01:50:00,
2013-11-04 20:54:00,49.9,41.2,30.38,West,278,0.0,1.0,72,0.00,,---,0.00,VWS V14.01,2013-11-05 01:54:00,
2013-11-04 20:55:00,49.1,41.9,30.36,South,178,0.0,1.0,76,0.00,,---,0.00,VWS V14.01,2013-11-05 01:55:00,
2013-11-04 20:59:00,49.7,41.4,30.38,West,278,0.0,0.0,73,0.00,,---,0.00,VWS V14.01,2013-11-05 01:59:00,
2013-11-04 21:00:00,49.4,41.1,30.36,WSW,241,0.0,1.0,73,0.00,,---,0.00,VWS V14.01,2013-11-05 02:00:00,
2013-11-04 21:04:00,49.4,41.5,30.38,West,278,0.0,1.0,74,0.00,,---,0.00,VWS V14.01,2013-11-05 02:04:00,
2013-11-04 21:05:00,50.5,41.1,30.36,WSW,255,0.0,1.0,70,0.00,,---,0.00,VWS V14.01,2013-11-05 02:05:00,
2013-11-04 21:09:00,49.1,41.9,30.38,West,278,0.0,1.0,76,0.00,,---,0.00,VWS V14.01,2013-11-05 02:09:00,
2013-11-04 21:10:00,51.2,40.6,30.36,SSE,155,0.0,0.0,67,0.00,,---,0.00,VWS V14.01,2013-11-05 02:10:00,
2013-11-04 21:14:00,48.9,41.0,30.38,West,276,0.0,1.0,74,0.00,,---,0.00,VWS V14.01,2013-11-05 02:14:00,
2013-11-04 21:15:00,50.7,42.7,30.37,SSE,155,0.0,0.0,74,0.00,,---,0.00,VWS V14.01,2013-11-05 02:15:00,
2013-11-04 21:19:00,48.8,41.2,30.38,West,276,0.0,0.0,75,0.00,,---,0.00,VWS V14.01,2013-11-05 02:19:00,
2013-11-04 21:20:00,50.0,42.0,30.36,SW,231,0.0,1.0,74,0.00,,---,0.00,VWS V14.01,2013-11-05 02:20:00,
2013-11-04 21:24:00,48.3,41.4,30.38,West,276,0.0,0.0,77,0.00,,---,0.00,VWS V14.01,2013-11-05 02:24:00,
2013-11-04 21:25:00,49.8,42.2,30.36,SW,231,0.0,0.0,75,0.00,,---,0.00,VWS V14.01,2013-11-05 02:25:00,
2013-11-04 21:29:00,48.1,42.2,30.38,West,276,0.0,0.0,80,0.00,,---,0.00,VWS V14.01,2013-11-05 02:29:00,
2013-11-04 21:30:00,49.3,42.4,30.36,SW,231,0.0,0.0,77,0.00,,---,0.00,VWS V14.01,2013-11-05 02:30:00,
2013-11-04 21:34:00,47.7,42.2,30.38,West,276,0.0,0.0,81,0.00,,---,0.00,VWS V14.01,2013-11-05 02:34:00,
2013-11-04 21:35:00,48.7,42.2,30.36,SW,231,0.0,0.0,78,0.00,,---,0.00,VWS V14.01,2013-11-05 02:35:00,
2013-11-04 21:39:00,47.2,41.0,30.38,West,276,0.0,0.0,79,0.00,,---,0.00,VWS V14.01,2013-11-05 02:39:00,
2013-11-04 21:40:00,49.0,42.5,30.37,West,262,0.0,1.0,78,0.00,,---,0.00,VWS V14.01,2013-11-05 02:40:00,
2013-11-04 21:44:00,47.0,40.5,30.38,West,276,0.0,0.0,78,0.00,,---,0.00,VWS V14.01,2013-11-05 02:44:00,
2013-11-04 21:45:00,49.2,41.3,30.37,NW,307,0.0,1.0,74,0.00,,---,0.00,VWS V14.01,2013-11-05 02:45:00,
2013-11-04 21:49:00,47.6,40.4,30.38,WSW,245,0.0,1.0,76,0.00,,---,0.00,VWS V14.01,2013-11-05 02:49:00,
2013-11-04 21:50:00,49.8,41.2,30.37,West,262,0.0,2.0,72,0.00,,---,0.00,VWS V14.01,2013-11-05 02:50:00,
2013-11-04 21:54:00,48.1,40.6,30.38,WSW,245,0.0,1.0,75,0.00,,---,0.00,VWS V14.01,2013-11-05 02:54:00,
2013-11-04 21:55:00,49.9,41.2,30.38,West,278,0.0,1.0,72,0.00,,---,0.00,VWS V14.01,2013-11-05 02:55:00,
2013-11-04 21:59:00,49.1,40.1,30.38,WNW,283,0.0,2.0,71,0.00,,---,0.00,VWS V14.01,2013-11-05 02:59:00,
2013-11-04 22:00:00,49.7,41.4,30.38,West,278,0.0,0.0,73,0.00,,---,0.00,VWS V14.01,2013-11-05 03:00:00,
2013-11-04 22:04:00,50.1,40.0,30.38,WSW,252,0.0,2.0,68,0.00,,---,0.00,VWS V14.01,2013-11-05 03:04:00,
2013-11-04 22:05:00,49.4,41.5,30.38,West,278,0.0,1.0,74,0.00,,---,0.00,VWS V14.01,2013-11-05 03:05:00,
2013-11-04 22:09:00,50.6,40.1,30.38,West,260,0.0,1.0,67,0.00,,---,0.00,VWS V14.01,2013-11-05 03:09:00,
2013-11-04 22:10:00,49.1,41.2,30.38,West,278,0.0,1.0,74,0.00,,---,0.00,VWS V14.01,2013-11-05 03:10:00,
2013-11-04 22:14:00,50.5,40.0,30.38,West,276,0.0,1.0,67,0.00,,---,0.00,VWS V14.01,2013-11-05 03:14:00,
2013-11-04 22:15:00,48.9,41.0,30.38,West,276,0.0,1.0,74,0.00,,---,0.00,VWS V14.01,2013-11-05 03:15:00,
2013-11-04 22:19:00,50.3,39.8,30.38,West,264,0.0,1.0,67,0.00,,---,0.00,VWS V14.01,2013-11-05 03:19:00,
2013-11-04 22:20:00,48.7,41.1,30.38,West,276,0.0,0.0,75,0.00,,---,0.00,VWS V14.01,2013-11-05 03:20:00,
2013-11-04 22:24:00,50.0,40.2,30.38,West,264,0.0,1.0,69,0.00,,---,0.00,VWS V14.01,2013-11-05 03:24:00,
2013-11-04 22:25:00,48.3,41.4,30.38,West,276,0.0,0.0,77,0.00,,---,0.00,VWS V14.01,2013-11-05 03:25:00,
2013-11-04 22:29:00,49.5,39.8,30.38,West,271,0.0,1.0,69,0.00,,---,0.00,VWS V14.01,2013-11-05 03:29:00,
2013-11-04 22:30:00,48.1,42.2,30.38,West,276,0.0,0.0,80,0.00,,---,0.00,VWS V14.01,2013-11-05 03:30:00,
2013-11-04 22:34:00,49.5,39.8,30.39,WSW,251,0.0,0.0,69,0.00,,---,0.00,VWS V14.01,2013-11-05 03:34:00,
2013-11-04 22:35:00,47.7,42.2,30.38,West,276,0.0,0.0,81,0.00,,---,0.00,VWS V14.01,2013-11-05 03:35:00,
2013-11-04 22:39:00,49.3,40.3,30.38,WSW,247,1.0,1.0,71,0.00,,---,0.00,VWS V14.01,2013-11-05 03:39:00,
2013-11-04 22:40:00,47.2,41.0,30.38,West,276,0.0,0.0,79,0.00,,---,0.00,VWS V14.01,2013-11-05 03:40:00,
2013-11-04 22:44:00,49.1,40.5,30.38,WSW,256,0.0,0.0,72,0.00,,---,0.00,VWS V14.01,2013-11-05 03:44:00,
2013-11-04 22:45:00,47.0,40.5,30.38,West,276,0.0,0.0,78,0.00,,---,0.00,VWS V14.01,2013-11-05 03:45:00,
2013-11-04 22:49:00,48.8,39.5,30.38,WSW,256,0.0,0.0,70,0.00,,---,0.00,VWS V14.01,2013-11-05 03:49:00,
2013-11-04 22:50:00,47.6,40.4,30.38,WSW,245,0.0,1.0,76,0.00,,---,0.00,VWS V14.01,2013-11-05 03:50:00,
2013-11-04 22:54:00,48.5,40.2,30.38,WSW,256,0.0,0.0,73,0.00,,---,0.00,VWS V14.01,2013-11-05 03:54:00,
2013-11-04 22:55:00,48.2,40.7,30.38,WSW,245,0.0,1.0,75,0.00,,---,0.00,VWS V14.01,2013-11-05 03:55:00,
2013-11-04 22:59:00,48.3,39.3,30.39,WSW,256,0.0,0.0,71,0.00,,---,0.00,VWS V14.01,2013-11-05 03:59:00,
2013-11-04 23:00:00,49.1,40.1,30.38,WNW,283,0.0,2.0,71,0.00,,---,0.00,VWS V14.01,2013-11-05 04:00:00,
2013-11-04 23:04:00,48.5,39.5,30.38,WSW,256,0.0,0.0,71,0.00,,---,0.00,VWS V14.01,2013-11-05 04:04:00,
2013-11-04 23:05:00,50.2,40.1,30.38,WSW,252,0.0,2.0,68,0.00,,---,0.00,VWS V14.01,2013-11-05 04:05:00,
2013-11-04 23:09:00,48.4,39.4,30.38,WSW,256,0.0,0.0,71,0.00,,---,0.00,VWS V14.01,2013-11-05 04:09:00,
2013-11-04 23:10:00,50.6,40.1,30.38,West,260,0.0,1.0,67,0.00,,---,0.00,VWS V14.01,2013-11-05 04:10:00,
2013-11-04 23:14:00,48.3,40.1,30.38,WSW,256,0.0,0.0,73,0.00,,---,0.00,VWS V14.01,2013-11-05 04:14:00,
2013-11-04 23:15:00,50.5,40.0,30.38,West,276,0.0,1.0,67,0.00,,---,0.00,VWS V14.01,2013-11-05 04:15:00,
2013-11-04 23:19:00,48.1,39.9,30.39,WSW,256,0.0,0.0,73,0.00,,---,0.00,VWS V14.01,2013-11-05 04:19:00,
2013-11-04 23:20:00,50.3,39.8,30.38,West,264,0.0,1.0,67,0.00,,---,0.00,VWS V14.01,2013-11-05 04:20:00,
2013-11-04 23:24:00,48.3,39.3,30.39,WSW,248,0.0,0.0,71,0.00,,---,0.00,VWS V14.01,2013-11-05 04:24:00,
2013-11-04 23:25:00,50.0,40.2,30.38,West,264,0.0,1.0,69,0.00,,---,0.00,VWS V14.01,2013-11-05 04:25:00,
2013-11-04 23:29:00,48.5,39.9,30.38,WSW,247,0.0,0.0,72,0.00,,---,0.00,VWS V14.01,2013-11-05 04:29:00,
2013-11-04 23:30:00,49.5,39.8,30.38,West,271,0.0,1.0,69,0.00,,---,0.00,VWS V14.01,2013-11-05 04:30:00,
2013-11-04 23:34:00,48.6,39.6,30.39,West,274,0.0,0.0,71,0.00,,---,0.00,VWS V14.01,2013-11-05 04:34:00,
2013-11-04 23:35:00,49.5,39.8,30.38,WSW,251,0.0,1.0,69,0.00,,---,0.00,VWS V14.01,2013-11-05 04:35:00,
2013-11-04 23:39:00,48.6,40.0,30.39,West,262,0.0,0.0,72,0.00,,---,0.00,VWS V14.01,2013-11-05 04:39:00,
2013-11-04 23:40:00,49.3,40.3,30.38,WSW,251,0.0,0.0,71,0.00,,---,0.00,VWS V14.01,2013-11-05 04:40:00,
2013-11-04 23:44:00,48.7,39.4,30.39,West,262,0.0,0.0,70,0.00,,---,0.00,VWS V14.01,2013-11-05 04:44:00,
2013-11-04 23:45:00,49.1,40.5,30.38,WSW,256,0.0,1.0,72,0.00,,---,0.00,VWS V14.01,2013-11-05 04:45:00,
2013-11-04 23:49:00,48.8,39.8,30.39,WSW,240,0.0,0.0,71,0.00,,---,0.00,VWS V14.01,2013-11-05 04:49:00,
2013-11-04 23:50:00,48.8,39.5,30.38,WSW,256,0.0,0.0,70,0.00,,---,0.00,VWS V14.01,2013-11-05 04:50:00,
2013-11-04 23:54:00,48.9,39.2,30.39,WSW,252,0.0,0.0,69,0.00,,---,0.00,VWS V14.01,2013-11-05 04:54:00,
2013-11-04 23:55:00,48.5,40.2,30.38,WSW,256,0.0,0.0,73,0.00,,---,0.00,VWS V14.01,2013-11-05 04:55:00,
2013-11-04 23:59:00,49.0,39.7,30.39,SW,232,0.0,0.0,70,0.00,,---,0.00,VWS V14.01,2013-11-05 04:59:00,